Time,TemperatureF,DewpointF,PressureIn,WindDirection,WindDirectionDegrees,WindSpeedMPH,WindSpeedGustMPH,Humidity,HourlyPrecipIn,Conditions,Clouds,dailyrainin,SoftwareType,DateUTC
2013-03-28 00:00:00,51.3,47.2,29.95,South,180,0.0,0.0,86,0.00,,,0.00,WUHU21623XXSP,2013-03-28 07:00:00,
2013-03-28 00:01:00,51.4,47.3,29.95,South,180,0.0,0.0,86,0.00,,,0.00,WUHU21623XXSP,2013-03-28 07:01:00,
2013-03-28 00:02:00,51.3,47.2,29.95,South,180,0.0,0.0,86,0.00,,,0.00,WUHU21623XXSP,2013-03-28 07:02:00,
2013-03-28 00:05:00,51.4,47.3,29.95,South,180,0.0,0.0,86,0.00,,,0.00,WUHU21623XXSP,2013-03-28 07:05:00,
2013-03-28 00:06:00,51.4,47.3,29.95,South,180,0.0,0.0,86,0.00,,,0.00,WUHU21623XXSP,2013-03-28 07:06:00,
2013-03-28 00:08:00,51.4,47.3,29.95,South,180,0.0,0.0,86,0.00,,,0.00,WUHU21623XXSP,2013-03-28 07:08:00,
2013-03-28 00:10:00,51.4,47.3,29.95,South,180,0.0,0.0,86,0.00,,,0.00,WUHU21623XXSP,2013-03-28 07:10:00,
2013-03-28 00:11:00,51.4,47.3,29.95,South,180,0.0,0.0,86,0.00,,,0.00,WUHU21623XXSP,2013-03-28 07:11:00,
2013-03-28 00:13:00,51.4,47.3,29.95,South,180,0.0,0.0,86,0.00,,,0.00,WUHU21623XXSP,2013-03-28 07:13:00,
2013-03-28 00:15:00,51.4,47.3,29.95,South,180,0.0,0.0,86,0.00,,,0.00,WUHU21623XXSP,2013-03-28 07:15:00,
2013-03-28 00:16:00,51.4,47.3,29.95,South,180,0.0,0.0,86,0.00,,,0.00,WUHU21623XXSP,2013-03-28 07:16:00,
2013-03-28 00:18:00,51.4,47.3,29.95,South,180,0.0,0.0,86,0.00,,,0.00,WUHU21623XXSP,2013-03-28 07:18:00,
2013-03-28 00:20:00,51.4,47.3,29.95,South,180,0.0,0.0,86,0.00,,,0.00,WUHU21623XXSP,2013-03-28 07:20:00,
2013-03-28 00:21:00,51.4,47.3,29.95,South,180,0.0,0.0,86,0.00,,,0.00,WUHU21623XXSP,2013-03-28 07:21:00,
2013-03-28 00:23:00,51.4,47.3,29.95,South,180,0.0,0.0,86,0.00,,,0.00,WUHU21623XXSP,2013-03-28 07:23:00,
2013-03-28 00:25:00,51.4,47.3,29.95,South,180,0.0,0.0,86,0.00,,,0.00,WUHU21623XXSP,2013-03-28 07:25:00,
2013-03-28 00:26:00,51.3,47.2,29.95,South,180,0.0,0.0,86,0.00,,,0.00,WUHU21623XXSP,2013-03-28 07:26:00,
2013-03-28 00:27:00,51.4,47.3,29.95,South,180,0.0,0.0,86,0.00,,,0.00,WUHU21623XXSP,2013-03-28 07:27:00,
2013-03-28 00:28:00,51.4,47.3,29.95,South,180,0.0,0.0,86,0.00,,,0.00,WUHU21623XXSP,2013-03-28 07:28:00,
2013-03-28 00:30:00,51.4,47.3,29.95,South,180,0.0,0.0,86,0.00,,,0.00,WUHU21623XXSP,2013-03-28 07:30:00,
2013-03-28 00:32:00,51.4,47.3,29.95,South,180,0.0,0.0,86,0.00,,,0.00,WUHU21623XXSP,2013-03-28 07:32:00,
2013-03-28 00:33:00,51.4,47.3,29.95,South,180,0.0,0.0,86,0.00,,,0.00,WUHU21623XXSP,2013-03-28 07:33:00,
2013-03-28 00:36:00,51.4,47.3,29.95,South,180,0.0,0.0,86,0.00,,,0.00,WUHU21623XXSP,2013-03-28 07:36:00,
2013-03-28 00:37:00,51.4,47.3,29.95,South,180,0.0,0.0,86,0.00,,,0.00,WUHU21623XXSP,2013-03-28 07:37:00,
2013-03-28 00:38:00,51.4,47.3,29.95,South,180,0.0,0.0,86,0.00,,,0.00,WUHU21623XXSP,2013-03-28 07:38:00,
2013-03-28 00:41:00,51.3,47.2,29.95,South,180,0.0,0.0,86,0.00,,,0.00,WUHU21623XXSP,2013-03-28 07:41:00,
2013-03-28 00:42:00,51.3,47.2,29.95,South,180,0.0,0.0,86,0.00,,,0.00,WUHU21623XXSP,2013-03-28 07:42:00,
2013-03-28 00:43:00,51.3,47.2,29.95,South,180,0.0,0.0,86,0.00,,,0.00,WUHU21623XXSP,2013-03-28 07:43:00,
2013-03-28 00:46:00,51.3,47.2,29.95,South,180,0.0,0.0,86,0.00,,,0.00,WUHU21623XXSP,2013-03-28 07:46:00,
2013-03-28 00:47:00,51.3,47.2,29.95,South,180,0.0,0.0,86,0.00,,,0.00,WUHU21623XXSP,2013-03-28 07:47:00,
2013-03-28 00:48:00,51.3,47.2,29.95,South,180,0.0,0.0,86,0.00,,,0.00,WUHU21623XXSP,2013-03-28 07:48:00,
2013-03-28 00:51:00,51.3,47.2,29.95,South,180,0.0,0.0,86,0.00,,,0.00,WUHU21623XXSP,2013-03-28 07:51:00,
2013-03-28 00:52:00,51.3,47.2,29.95,South,180,0.0,0.0,86,0.00,,,0.00,WUHU21623XXSP,2013-03-28 07:52:00,
2013-03-28 00:53:00,51.3,47.2,29.95,South,180,0.0,0.0,86,0.00,,,0.00,WUHU21623XXSP,2013-03-28 07:53:00,
2013-03-28 00:57:00,51.3,47.2,29.95,South,180,0.0,0.0,86,0.00,,,0.00,WUHU21623XXSP,2013-03-28 07:57:00,
2013-03-28 00:58:00,51.3,47.2,29.95,South,180,0.0,0.0,86,0.00,,,0.00,WUHU21623XXSP,2013-03-28 07:58:00,
2013-03-28 00:59:00,51.3,47.2,29.95,South,180,0.0,0.0,86,0.00,,,0.00,WUHU21623XXSP,2013-03-28 07:59:00,
2013-03-28 01:02:00,51.3,47.2,29.95,South,180,0.0,0.0,86,0.00,,,0.00,WUHU21623XXSP,2013-03-28 08:02:00,
2013-03-28 01:03:00,51.1,47.0,29.95,South,180,0.0,0.0,86,0.00,,,0.00,WUHU21623XXSP,2013-03-28 08:03:00,
2013-03-28 01:04:00,51.1,47.0,29.95,South,180,0.0,0.0,86,0.00,,,0.00,WUHU21623XXSP,2013-03-28 08:04:00,
2013-03-28 01:07:00,51.1,47.0,29.95,South,180,0.0,0.0,86,0.00,,,0.00,WUHU21623XXSP,2013-03-28 08:07:00,
2013-03-28 01:08:00,51.1,47.0,29.95,South,180,0.0,0.0,86,0.00,,,0.00,WUHU21623XXSP,2013-03-28 08:08:00,
2013-03-28 01:10:00,51.1,47.0,29.95,South,180,0.0,0.0,86,0.00,,,0.00,WUHU21623XXSP,2013-03-28 08:10:00,
2013-03-28 01:12:00,51.1,47.3,29.95,South,180,0.0,0.0,87,0.00,,,0.00,WUHU21623XXSP,2013-03-28 08:12:00,
2013-03-28 01:13:00,51.1,47.3,29.95,South,180,0.0,0.0,87,0.00,,,0.00,WUHU21623XXSP,2013-03-28 08:13:00,
2013-03-28 01:15:00,51.1,47.3,29.95,SE,135,0.0,0.0,87,0.00,,,0.00,WUHU21623XXSP,2013-03-28 08:15:00,
2013-03-28 01:17:00,51.1,47.3,29.95,SE,135,0.0,0.0,87,0.00,,,0.00,WUHU21623XXSP,2013-03-28 08:17:00,
2013-03-28 01:18:00,51.1,47.3,29.95,SE,135,0.0,0.0,87,0.00,,,0.00,WUHU21623XXSP,2013-03-28 08:18:00,
2013-03-28 01:19:00,51.1,47.3,29.95,SE,135,0.0,0.0,87,0.00,,,0.00,WUHU21623XXSP,2013-03-28 08:19:00,
2013-03-28 01:20:00,51.1,47.3,29.95,SE,135,0.0,0.0,87,0.00,,,0.00,WUHU21623XXSP,2013-03-28 08:20:00,
2013-03-28 01:22:00,51.1,47.3,29.96,SE,135,0.0,0.0,87,0.00,,,0.00,WUHU21623XXSP,2013-03-28 08:22:00,
2013-03-28 01:23:00,51.1,47.3,29.95,SE,135,0.0,0.0,87,0.00,,,0.00,WUHU21623XXSP,2013-03-28 08:23:00,
2013-03-28 01:24:00,51.1,47.3,29.95,SE,135,0.0,0.0,87,0.00,,,0.00,WUHU21623XXSP,2013-03-28 08:24:00,
2013-03-28 01:25:00,51.1,47.3,29.95,SE,135,0.0,0.0,87,0.00,,,0.00,WUHU21623XXSP,2013-03-28 08:25:00,
2013-03-28 01:27:00,51.1,47.3,29.95,SE,135,0.0,0.0,87,0.00,,,0.00,WUHU21623XXSP,2013-03-28 08:27:00,
2013-03-28 01:28:00,51.1,47.3,29.95,SE,135,0.0,0.0,87,0.00,,,0.00,WUHU21623XXSP,2013-03-28 08:28:00,
2013-03-28 01:29:00,51.1,47.3,29.95,SE,135,0.0,0.0,87,0.00,,,0.00,WUHU21623XXSP,2013-03-28 08:29:00,
2013-03-28 01:31:00,51.1,47.3,29.95,SE,135,0.0,0.0,87,0.00,,,0.00,WUHU21623XXSP,2013-03-28 08:31:00,
2013-03-28 01:32:00,51.1,47.3,29.95,SE,135,0.0,0.0,87,0.00,,,0.00,WUHU21623XXSP,2013-03-28 08:32:00,
2013-03-28 01:33:00,51.1,47.3,29.95,SE,135,0.0,0.0,87,0.00,,,0.00,WUHU21623XXSP,2013-03-28 08:33:00,
2013-03-28 01:34:00,50.9,47.1,29.95,SE,135,0.0,0.0,87,0.00,,,0.00,WUHU21623XXSP,2013-03-28 08:34:00,
2013-03-28 01:36:00,50.9,47.1,29.95,SE,135,0.0,0.0,87,0.00,,,0.00,WUHU21623XXSP,2013-03-28 08:36:00,
2013-03-28 01:37:00,51.1,47.3,29.95,SE,135,0.0,0.0,87,0.00,,,0.00,WUHU21623XXSP,2013-03-28 08:37:00,
2013-03-28 01:38:00,50.9,47.3,29.95,SE,135,0.0,0.0,87,0.00,,,0.00,WUHU21623XXSP,2013-03-28 08:38:00,
2013-03-28 01:39:00,50.9,47.1,29.95,SE,135,0.0,0.0,87,0.00,,,0.00,WUHU21623XXSP,2013-03-28 08:39:00,
2013-03-28 01:41:00,50.9,47.1,29.95,SE,135,0.0,0.0,87,0.00,,,0.00,WUHU21623XXSP,2013-03-28 08:41:00,
2013-03-28 01:43:00,50.9,47.1,29.95,SE,135,0.0,0.0,87,0.00,,,0.00,WUHU21623XXSP,2013-03-28 08:43:00,
2013-03-28 01:44:00,50.9,47.1,29.95,SE,135,0.0,0.0,87,0.00,,,0.00,WUHU21623XXSP,2013-03-28 08:44:00,
2013-03-28 01:46:00,50.9,47.1,29.95,SE,135,0.0,0.0,87,0.00,,,0.00,WUHU21623XXSP,2013-03-28 08:46:00,
2013-03-28 01:48:00,50.9,47.1,29.95,SE,135,0.0,0.0,87,0.00,,,0.00,WUHU21623XXSP,2013-03-28 08:48:00,
2013-03-28 01:49:00,50.9,47.1,29.95,SE,135,0.0,0.0,87,0.00,,,0.00,WUHU21623XXSP,2013-03-28 08:49:00,
2013-03-28 01:50:00,50.9,47.1,29.95,SE,135,0.0,0.0,87,0.00,,,0.00,WUHU21623XXSP,2013-03-28 08:50:00,
2013-03-28 01:51:00,50.9,47.1,29.95,SE,135,0.0,0.0,87,0.00,,,0.00,WUHU21623XXSP,2013-03-28 08:51:00,
2013-03-28 01:53:00,50.9,47.1,29.95,SE,135,0.0,0.0,87,0.00,,,0.00,WUHU21623XXSP,2013-03-28 08:53:00,
2013-03-28 01:54:00,50.9,47.1,29.95,SE,135,0.0,0.0,87,0.00,,,0.00,WUHU21623XXSP,2013-03-28 08:54:00,
2013-03-28 01:55:00,50.9,47.1,29.95,SE,135,0.0,0.0,87,0.00,,,0.00,WUHU21623XXSP,2013-03-28 08:55:00,
2013-03-28 01:56:00,50.9,47.1,29.95,SE,135,0.0,0.0,87,0.00,,,0.00,WUHU21623XXSP,2013-03-28 08:56:00,
2013-03-28 01:58:00,50.9,47.1,29.95,SE,135,0.0,0.0,87,0.00,,,0.00,WUHU21623XXSP,2013-03-28 08:58:00,
2013-03-28 01:59:00,50.9,47.1,29.95,SE,135,0.0,0.0,87,0.00,,,0.00,WUHU21623XXSP,2013-03-28 08:59:00,
2013-03-28 02:00:00,50.9,47.1,29.95,SE,135,0.0,0.0,87,0.00,,,0.00,WUHU21623XXSP,2013-03-28 09:00:00,
2013-03-28 02:01:00,50.9,47.1,29.95,SE,135,0.0,0.0,87,0.00,,,0.00,WUHU21623XXSP,2013-03-28 09:01:00,
2013-03-28 02:04:00,50.7,46.9,29.95,SE,135,0.0,0.0,87,0.00,,,0.00,WUHU21623XXSP,2013-03-28 09:04:00,
2013-03-28 02:06:00,50.7,46.9,29.95,SE,135,0.0,0.0,87,0.00,,,0.00,WUHU21623XXSP,2013-03-28 09:06:00,
2013-03-28 02:07:00,50.7,46.9,29.95,SE,135,0.0,0.0,87,0.00,,,0.00,WUHU21623XXSP,2013-03-28 09:07:00,
2013-03-28 02:09:00,50.7,46.9,29.94,SE,135,0.0,0.0,87,0.00,,,0.00,WUHU21623XXSP,2013-03-28 09:09:00,
2013-03-28 02:11:00,50.7,46.9,29.94,SE,135,0.0,0.0,87,0.00,,,0.00,WUHU21623XXSP,2013-03-28 09:11:00,
2013-03-28 02:12:00,50.7,46.9,29.94,SE,135,0.0,0.0,87,0.00,,,0.00,WUHU21623XXSP,2013-03-28 09:12:00,
2013-03-28 02:14:00,50.7,46.9,29.94,SE,135,0.0,0.0,87,0.00,,,0.00,WUHU21623XXSP,2013-03-28 09:14:00,
2013-03-28 02:17:00,50.7,46.9,29.94,SE,135,0.0,0.0,87,0.00,,,0.00,WUHU21623XXSP,2013-03-28 09:17:00,
2013-03-28 02:19:00,50.7,46.9,29.95,SE,135,0.0,0.0,87,0.00,,,0.00,WUHU21623XXSP,2013-03-28 09:19:00,
2013-03-28 02:20:00,50.7,46.9,29.94,SE,135,0.0,0.0,87,0.00,,,0.00,WUHU21623XXSP,2013-03-28 09:20:00,
2013-03-28 02:22:00,50.7,46.9,29.94,SE,135,0.0,0.0,87,0.00,,,0.00,WUHU21623XXSP,2013-03-28 09:22:00,
2013-03-28 02:24:00,50.7,46.9,29.95,SE,135,0.0,0.0,87,0.00,,,0.00,WUHU21623XXSP,2013-03-28 09:24:00,
2013-03-28 02:25:00,50.7,46.9,29.95,SE,135,0.0,0.0,87,0.00,,,0.00,WUHU21623XXSP,2013-03-28 09:25:00,
2013-03-28 02:27:00,50.7,46.9,29.95,SSE,157,0.0,0.0,87,0.00,,,0.00,WUHU21623XXSP,2013-03-28 09:27:00,
2013-03-28 02:29:00,50.7,46.9,29.95,SSE,157,0.0,0.0,87,0.00,,,0.00,WUHU21623XXSP,2013-03-28 09:29:00,
2013-03-28 02:30:00,50.7,46.9,29.95,SSE,157,0.0,0.0,87,0.00,,,0.00,WUHU21623XXSP,2013-03-28 09:30:00,
2013-03-28 02:32:00,50.7,46.9,29.95,SSE,157,0.0,0.0,87,0.00,,,0.00,WUHU21623XXSP,2013-03-28 09:32:00,
2013-03-28 02:34:00,50.7,46.9,29.95,SSE,157,0.0,0.0,87,0.00,,,0.00,WUHU21623XXSP,2013-03-28 09:34:00,
2013-03-28 02:35:00,50.7,46.9,29.95,SSE,157,0.0,0.0,87,0.00,,,0.00,WUHU21623XXSP,2013-03-28 09:35:00,
2013-03-28 02:37:00,50.7,46.9,29.95,SSE,157,0.0,0.0,87,0.00,,,0.00,WUHU21623XXSP,2013-03-28 09:37:00,
2013-03-28 02:38:00,50.7,46.9,29.95,SSE,157,0.0,0.0,87,0.00,,,0.00,WUHU21623XXSP,2013-03-28 09:38:00,
2013-03-28 02:39:00,50.7,46.9,29.95,SSE,157,0.0,0.0,87,0.00,,,0.00,WUHU21623XXSP,2013-03-28 09:39:00,
2013-03-28 02:40:00,50.7,46.9,29.95,SSE,157,0.0,0.0,87,0.00,,,0.00,WUHU21623XXSP,2013-03-28 09:40:00,
2013-03-28 02:42:00,50.7,46.9,29.95,SSE,157,0.0,0.0,87,0.00,,,0.00,WUHU21623XXSP,2013-03-28 09:42:00,
2013-03-28 02:43:00,50.7,47.2,29.94,SSE,157,0.0,0.0,88,0.00,,,0.00,WUHU21623XXSP,2013-03-28 09:43:00,
2013-03-28 02:44:00,50.7,47.2,29.95,SSE,157,0.0,0.0,88,0.00,,,0.00,WUHU21623XXSP,2013-03-28 09:44:00,
2013-03-28 02:45:00,50.7,47.2,29.94,SSE,157,0.0,0.0,88,0.00,,,0.00,WUHU21623XXSP,2013-03-28 09:45:00,
2013-03-28 02:47:00,50.7,47.2,29.94,SSE,157,0.0,0.0,88,0.00,,,0.00,WUHU21623XXSP,2013-03-28 09:47:00,
2013-03-28 02:49:00,50.7,47.2,29.94,SSE,157,0.0,0.0,88,0.00,,,0.00,WUHU21623XXSP,2013-03-28 09:49:00,
2013-03-28 02:50:00,50.7,47.2,29.94,SSE,157,0.0,0.0,88,0.00,,,0.00,WUHU21623XXSP,2013-03-28 09:50:00,
2013-03-28 02:52:00,50.7,47.2,29.94,SSE,157,0.0,0.0,88,0.00,,,0.00,WUHU21623XXSP,2013-03-28 09:52:00,
2013-03-28 02:54:00,50.7,47.2,29.94,SSE,157,0.0,0.0,88,0.00,,,0.00,WUHU21623XXSP,2013-03-28 09:54:00,
2013-03-28 02:55:00,50.7,47.2,29.94,SSE,157,0.0,0.0,88,0.00,,,0.00,WUHU21623XXSP,2013-03-28 09:55:00,
2013-03-28 02:57:00,50.7,47.2,29.95,SSE,157,0.0,0.0,88,0.00,,,0.00,WUHU21623XXSP,2013-03-28 09:57:00,
2013-03-28 03:00:00,50.5,47.0,29.94,SSE,157,0.0,0.0,88,0.00,,,0.00,WUHU21623XXSP,2013-03-28 10:00:00,
2013-03-28 03:02:00,50.5,47.0,29.94,SSE,157,0.0,0.0,88,0.00,,,0.00,WUHU21623XXSP,2013-03-28 10:02:00,
2013-03-28 03:05:00,50.5,47.0,29.94,ENE,67,0.0,0.0,88,0.00,,,0.00,WUHU21623XXSP,2013-03-28 10:05:00,
2013-03-28 03:07:00,50.4,46.9,29.94,ENE,67,0.0,0.0,88,0.00,,,0.00,WUHU21623XXSP,2013-03-28 10:07:00,
2013-03-28 03:10:00,50.4,46.9,29.95,ENE,67,0.0,0.0,88,0.00,,,0.00,WUHU21623XXSP,2013-03-28 10:10:00,
2013-03-28 03:11:00,50.4,46.9,29.95,ENE,67,0.0,0.0,88,0.00,,,0.00,WUHU21623XXSP,2013-03-28 10:11:00,
2013-03-28 03:12:00,50.2,46.7,29.95,ENE,67,0.0,0.0,88,0.00,,,0.00,WUHU21623XXSP,2013-03-28 10:12:00,
2013-03-28 03:15:00,50.2,46.7,29.95,ENE,67,0.0,0.0,88,0.00,,,0.00,WUHU21623XXSP,2013-03-28 10:15:00,
2013-03-28 03:16:00,50.2,46.7,29.95,ENE,67,0.0,0.0,88,0.00,,,0.00,WUHU21623XXSP,2013-03-28 10:16:00,
2013-03-28 03:17:00,50.2,46.7,29.95,ENE,67,0.0,0.0,88,0.00,,,0.00,WUHU21623XXSP,2013-03-28 10:17:00,
2013-03-28 03:20:00,49.8,46.0,29.95,ENE,67,0.0,0.0,87,0.00,,,0.00,WUHU21623XXSP,2013-03-28 10:20:00,
2013-03-28 03:21:00,49.8,46.0,29.95,ENE,67,0.0,0.0,87,0.00,,,0.00,WUHU21623XXSP,2013-03-28 10:21:00,
2013-03-28 03:22:00,49.8,46.0,29.95,ENE,67,0.0,0.0,87,0.00,,,0.00,WUHU21623XXSP,2013-03-28 10:22:00,
2013-03-28 03:25:00,49.8,46.0,29.95,ENE,67,0.0,0.0,87,0.00,,,0.00,WUHU21623XXSP,2013-03-28 10:25:00,
2013-03-28 03:26:00,49.6,45.9,29.95,ENE,67,0.0,0.0,87,0.00,,,0.00,WUHU21623XXSP,2013-03-28 10:26:00,
2013-03-28 03:28:00,49.6,45.9,29.95,ENE,67,0.0,0.0,87,0.00,,,0.00,WUHU21623XXSP,2013-03-28 10:28:00,
2013-03-28 03:30:00,49.5,45.7,29.95,ENE,67,0.0,0.0,87,0.00,,,0.00,WUHU21623XXSP,2013-03-28 10:30:00,
2013-03-28 03:31:00,49.5,45.7,29.95,ENE,67,0.0,0.0,87,0.00,,,0.00,WUHU21623XXSP,2013-03-28 10:31:00,
2013-03-28 03:33:00,49.3,45.5,29.95,ENE,67,0.0,0.0,87,0.00,,,0.00,WUHU21623XXSP,2013-03-28 10:33:00,
2013-03-28 03:35:00,49.3,45.5,29.95,ENE,67,0.0,0.0,87,0.00,,,0.00,WUHU21623XXSP,2013-03-28 10:35:00,
2013-03-28 03:37:00,49.1,45.4,29.95,ENE,67,0.0,0.0,87,0.00,,,0.00,WUHU21623XXSP,2013-03-28 10:37:00,
2013-03-28 03:38:00,49.1,45.4,29.95,ENE,67,0.0,0.0,87,0.00,,,0.00,WUHU21623XXSP,2013-03-28 10:38:00,
2013-03-28 03:41:00,48.9,45.2,29.95,ENE,67,0.0,0.0,87,0.00,,,0.00,WUHU21623XXSP,2013-03-28 10:41:00,
2013-03-28 03:42:00,48.9,45.2,29.95,ENE,67,0.0,0.0,87,0.00,,,0.00,WUHU21623XXSP,2013-03-28 10:42:00,
2013-03-28 03:43:00,48.9,45.2,29.95,ENE,67,0.0,0.0,87,0.00,,,0.00,WUHU21623XXSP,2013-03-28 10:43:00,
2013-03-28 03:46:00,48.7,45.0,29.95,ENE,67,0.0,0.0,87,0.00,,,0.00,WUHU21623XXSP,2013-03-28 10:46:00,
2013-03-28 03:47:00,48.7,45.0,29.95,ENE,67,0.0,0.0,87,0.00,,,0.00,WUHU21623XXSP,2013-03-28 10:47:00,
2013-03-28 03:48:00,48.7,45.0,29.95,ENE,67,0.0,0.0,87,0.00,,,0.00,WUHU21623XXSP,2013-03-28 10:48:00,
2013-03-28 03:51:00,48.7,45.0,29.95,ENE,67,0.0,0.0,87,0.00,,,0.00,WUHU21623XXSP,2013-03-28 10:51:00,
2013-03-28 03:53:00,48.6,44.9,29.95,ENE,67,0.0,0.0,87,0.00,,,0.00,WUHU21623XXSP,2013-03-28 10:53:00,
2013-03-28 03:57:00,48.4,44.7,29.95,ENE,67,0.0,0.0,87,0.00,,,0.00,WUHU21623XXSP,2013-03-28 10:57:00,
2013-03-28 03:58:00,48.4,44.7,29.94,ENE,67,0.0,0.0,87,0.00,,,0.00,WUHU21623XXSP,2013-03-28 10:58:00,
2013-03-28 04:02:00,48.0,44.3,29.94,ENE,67,0.0,0.0,87,0.00,,,0.00,WUHU21623XXSP,2013-03-28 11:02:00,
2013-03-28 04:03:00,48.0,44.3,29.95,ENE,67,0.0,0.0,87,0.00,,,0.00,WUHU21623XXSP,2013-03-28 11:03:00,
2013-03-28 04:04:00,48.0,44.3,29.95,ENE,67,0.0,0.0,87,0.00,,,0.00,WUHU21623XXSP,2013-03-28 11:04:00,
2013-03-28 04:07:00,48.0,44.3,29.95,ENE,67,0.0,0.0,87,0.00,,,0.00,WUHU21623XXSP,2013-03-28 11:07:00,
2013-03-28 04:08:00,48.0,44.3,29.95,ENE,67,0.0,0.0,87,0.00,,,0.00,WUHU21623XXSP,2013-03-28 11:08:00,
2013-03-28 04:09:00,48.0,44.3,29.95,ENE,67,0.0,0.0,87,0.00,,,0.00,WUHU21623XXSP,2013-03-28 11:09:00,
2013-03-28 04:12:00,47.8,44.2,29.95,ENE,67,0.0,0.0,87,0.00,,,0.00,WUHU21623XXSP,2013-03-28 11:12:00,
2013-03-28 04:13:00,47.8,44.2,29.95,ENE,67,0.0,0.0,87,0.00,,,0.00,WUHU21623XXSP,2013-03-28 11:13:00,
2013-03-28 04:14:00,47.8,44.2,29.95,ENE,67,0.0,0.0,87,0.00,,,0.00,WUHU21623XXSP,2013-03-28 11:14:00,
2013-03-28 04:17:00,47.7,44.0,29.95,ENE,67,0.0,0.0,87,0.00,,,0.00,WUHU21623XXSP,2013-03-28 11:17:00,
2013-03-28 04:19:00,47.5,43.8,29.95,ENE,67,0.0,0.0,87,0.00,,,0.00,WUHU21623XXSP,2013-03-28 11:19:00,
2013-03-28 04:23:00,47.5,43.8,29.95,ENE,67,0.0,0.0,87,0.00,,,0.00,WUHU21623XXSP,2013-03-28 11:23:00,
2013-03-28 04:24:00,47.3,43.6,29.95,ENE,67,0.0,0.0,87,0.00,,,0.00,WUHU21623XXSP,2013-03-28 11:24:00,
2013-03-28 04:28:00,47.1,43.5,29.95,ENE,67,0.0,0.0,87,0.00,,,0.00,WUHU21623XXSP,2013-03-28 11:28:00,
2013-03-28 04:29:00,47.1,43.5,29.95,ENE,67,0.0,0.0,87,0.00,,,0.00,WUHU21623XXSP,2013-03-28 11:29:00,
2013-03-28 04:30:00,47.1,43.5,29.95,ENE,67,0.0,0.0,87,0.00,,,0.00,WUHU21623XXSP,2013-03-28 11:30:00,
2013-03-28 04:33:00,47.1,43.5,29.95,ENE,67,0.0,0.0,87,0.00,,,0.00,WUHU21623XXSP,2013-03-28 11:33:00,
2013-03-28 04:34:00,47.1,43.5,29.95,ENE,67,0.0,0.0,87,0.00,,,0.00,WUHU21623XXSP,2013-03-28 11:34:00,
2013-03-28 04:35:00,46.9,43.3,29.95,ENE,67,0.0,0.0,87,0.00,,,0.00,WUHU21623XXSP,2013-03-28 11:35:00,
2013-03-28 04:38:00,46.9,43.3,29.96,ENE,67,0.0,0.0,87,0.00,,,0.00,WUHU21623XXSP,2013-03-28 11:38:00,
2013-03-28 04:39:00,46.9,43.3,29.95,ENE,67,0.0,0.0,87,0.00,,,0.00,WUHU21623XXSP,2013-03-28 11:39:00,
2013-03-28 04:41:00,46.8,43.1,29.95,ENE,67,0.0,0.0,87,0.00,,,0.00,WUHU21623XXSP,2013-03-28 11:41:00,
2013-03-28 04:43:00,46.6,42.9,29.95,ENE,67,0.0,0.0,87,0.00,,,0.00,WUHU21623XXSP,2013-03-28 11:43:00,
2013-03-28 04:44:00,46.6,42.9,29.95,ENE,67,0.0,0.0,87,0.00,,,0.00,WUHU21623XXSP,2013-03-28 11:44:00,
2013-03-28 04:46:00,46.6,42.9,29.95,ENE,67,0.0,0.0,87,0.00,,,0.00,WUHU21623XXSP,2013-03-28 11:46:00,
2013-03-28 04:49:00,46.6,42.9,29.96,ENE,67,0.0,0.0,87,0.00,,,0.00,WUHU21623XXSP,2013-03-28 11:49:00,
2013-03-28 04:50:00,46.6,42.9,29.95,ENE,67,0.0,0.0,87,0.00,,,0.00,WUHU21623XXSP,2013-03-28 11:50:00,
2013-03-28 04:52:00,46.4,42.8,29.95,ENE,67,0.0,0.0,87,0.00,,,0.00,WUHU21623XXSP,2013-03-28 11:52:00,
2013-03-28 04:54:00,46.2,42.6,29.96,ENE,67,0.0,0.0,87,0.00,,,0.00,WUHU21623XXSP,2013-03-28 11:54:00,
2013-03-28 04:55:00,46.2,42.6,29.96,ENE,67,0.0,0.0,87,0.00,,,0.00,WUHU21623XXSP,2013-03-28 11:55:00,
2013-03-28 04:57:00,46.2,42.6,29.96,ENE,67,0.0,0.0,87,0.00,,,0.00,WUHU21623XXSP,2013-03-28 11:57:00,
2013-03-28 04:59:00,46.2,42.6,29.96,ENE,67,0.0,0.0,87,0.00,,,0.00,WUHU21623XXSP,2013-03-28 11:59:00,
2013-03-28 05:00:00,46.2,42.6,29.96,ENE,67,0.0,0.0,87,0.00,,,0.00,WUHU21623XXSP,2013-03-28 12:00:00,
2013-03-28 05:02:00,46.2,42.6,29.96,ENE,67,0.0,0.0,87,0.00,,,0.00,WUHU21623XXSP,2013-03-28 12:02:00,
2013-03-28 05:04:00,46.0,42.4,29.96,ENE,67,0.0,0.0,87,0.00,,,0.00,WUHU21623XXSP,2013-03-28 12:04:00,
2013-03-28 05:05:00,46.0,42.4,29.96,ENE,67,0.0,0.0,87,0.00,,,0.00,WUHU21623XXSP,2013-03-28 12:05:00,
2013-03-28 05:07:00,46.0,42.4,29.96,ENE,67,0.0,0.0,87,0.00,,,0.00,WUHU21623XXSP,2013-03-28 12:07:00,
2013-03-28 05:09:00,46.0,42.4,29.96,ENE,67,0.0,0.0,87,0.00,,,0.00,WUHU21623XXSP,2013-03-28 12:09:00,
2013-03-28 05:10:00,46.0,42.4,29.96,ENE,67,0.0,0.0,87,0.00,,,0.00,WUHU21623XXSP,2013-03-28 12:10:00,
2013-03-28 05:12:00,46.0,42.4,29.96,ENE,67,0.0,0.0,87,0.00,,,0.00,WUHU21623XXSP,2013-03-28 12:12:00,
2013-03-28 05:14:00,46.0,42.4,29.96,ENE,67,0.0,0.0,87,0.00,,,0.00,WUHU21623XXSP,2013-03-28 12:14:00,
2013-03-28 05:15:00,46.0,42.7,29.96,ENE,67,0.0,0.0,88,0.00,,,0.00,WUHU21623XXSP,2013-03-28 12:15:00,
2013-03-28 05:17:00,45.9,42.5,29.96,ENE,67,0.0,0.0,88,0.00,,,0.00,WUHU21623XXSP,2013-03-28 12:17:00,
2013-03-28 05:19:00,46.0,42.7,29.96,ENE,67,0.0,0.0,88,0.00,,,0.00,WUHU21623XXSP,2013-03-28 12:19:00,
2013-03-28 05:20:00,45.9,42.5,29.96,ENE,67,0.0,0.0,88,0.00,,,0.00,WUHU21623XXSP,2013-03-28 12:20:00,
2013-03-28 05:22:00,46.0,42.7,29.95,ENE,67,0.0,0.0,88,0.00,,,0.00,WUHU21623XXSP,2013-03-28 12:22:00,
2013-03-28 05:24:00,46.0,42.7,29.95,ENE,67,0.0,0.0,88,0.00,,,0.00,WUHU21623XXSP,2013-03-28 12:24:00,
2013-03-28 05:25:00,45.9,42.5,29.95,ENE,67,0.0,0.0,88,0.00,,,0.00,WUHU21623XXSP,2013-03-28 12:25:00,
2013-03-28 05:26:00,46.0,42.7,29.95,ENE,67,0.0,0.0,88,0.00,,,0.00,WUHU21623XXSP,2013-03-28 12:26:00,
2013-03-28 05:27:00,46.0,42.7,29.95,ENE,67,0.0,0.0,88,0.00,,,0.00,WUHU21623XXSP,2013-03-28 12:27:00,
2013-03-28 05:30:00,46.0,42.7,29.95,ENE,67,0.0,0.0,88,0.00,,,0.00,WUHU21623XXSP,2013-03-28 12:30:00,
2013-03-28 05:31:00,46.0,42.7,29.95,ENE,67,0.0,0.0,88,0.00,,,0.00,WUHU21623XXSP,2013-03-28 12:31:00,
2013-03-28 05:32:00,46.0,42.7,29.95,ENE,67,0.0,0.0,88,0.00,,,0.00,WUHU21623XXSP,2013-03-28 12:32:00,
2013-03-28 05:35:00,46.0,42.7,29.95,ENE,67,0.0,0.0,88,0.00,,,0.00,WUHU21623XXSP,2013-03-28 12:35:00,
2013-03-28 05:36:00,46.0,42.7,29.95,ENE,67,0.0,0.0,88,0.00,,,0.00,WUHU21623XXSP,2013-03-28 12:36:00,
2013-03-28 05:38:00,46.0,42.7,29.96,ENE,67,0.0,0.0,88,0.00,,,0.00,WUHU21623XXSP,2013-03-28 12:38:00,
2013-03-28 05:40:00,46.0,42.7,29.96,ENE,67,0.0,0.0,88,0.00,,,0.00,WUHU21623XXSP,2013-03-28 12:40:00,
2013-03-28 05:42:00,46.0,42.7,29.95,ENE,67,0.0,0.0,88,0.00,,,0.00,WUHU21623XXSP,2013-03-28 12:42:00,
2013-03-28 05:43:00,46.0,42.7,29.96,ENE,67,0.0,0.0,88,0.00,,,0.00,WUHU21623XXSP,2013-03-28 12:43:00,
2013-03-28 05:45:00,46.0,42.7,29.96,ENE,67,0.0,0.0,88,0.00,,,0.00,WUHU21623XXSP,2013-03-28 12:45:00,
2013-03-28 05:46:00,46.0,42.7,29.96,ENE,67,0.0,0.0,88,0.00,,,0.00,WUHU21623XXSP,2013-03-28 12:46:00,
2013-03-28 05:47:00,46.0,42.7,29.96,ENE,67,0.0,0.0,88,0.00,,,0.00,WUHU21623XXSP,2013-03-28 12:47:00,
2013-03-28 05:48:00,46.0,42.7,29.95,ENE,67,0.0,0.0,88,0.00,,,0.00,WUHU21623XXSP,2013-03-28 12:48:00,
2013-03-28 05:50:00,46.0,42.7,29.95,ENE,67,0.0,0.0,88,0.00,,,0.00,WUHU21623XXSP,2013-03-28 12:50:00,
2013-03-28 05:51:00,46.0,42.7,29.95,ENE,67,0.0,0.0,88,0.00,,,0.00,WUHU21623XXSP,2013-03-28 12:51:00,
2013-03-28 05:52:00,46.0,42.7,29.95,ENE,67,0.0,0.0,88,0.00,,,0.00,WUHU21623XXSP,2013-03-28 12:52:00,
2013-03-28 05:53:00,46.0,42.7,29.96,ESE,112,0.0,0.0,88,0.00,,,0.00,WUHU21623XXSP,2013-03-28 12:53:00,
2013-03-28 05:55:00,46.0,42.7,29.95,ESE,112,0.0,0.0,88,0.00,,,0.00,WUHU21623XXSP,2013-03-28 12:55:00,
2013-03-28 05:56:00,46.0,42.7,29.96,ESE,112,0.0,0.0,88,0.00,,,0.00,WUHU21623XXSP,2013-03-28 12:56:00,
2013-03-28 05:57:00,46.2,42.9,29.96,ESE,112,0.0,0.0,88,0.00,,,0.00,WUHU21623XXSP,2013-03-28 12:57:00,
2013-03-28 05:59:00,46.0,42.7,29.96,ESE,112,0.0,0.0,88,0.00,,,0.00,WUHU21623XXSP,2013-03-28 12:59:00,
2013-03-28 06:00:00,46.2,42.9,29.96,ESE,112,0.0,0.0,88,0.00,,,0.00,WUHU21623XXSP,2013-03-28 13:00:00,
2013-03-28 06:01:00,46.2,42.9,29.96,ESE,112,0.0,0.0,88,0.00,,,0.00,WUHU21623XXSP,2013-03-28 13:01:00,
2013-03-28 06:02:00,46.2,42.9,29.96,ESE,112,0.0,0.0,88,0.00,,,0.00,WUHU21623XXSP,2013-03-28 13:02:00,
2013-03-28 06:04:00,46.2,42.9,29.95,ESE,112,0.0,0.0,88,0.00,,,0.00,WUHU21623XXSP,2013-03-28 13:04:00,
2013-03-28 06:06:00,46.2,42.9,29.96,ESE,112,0.0,0.0,88,0.00,,,0.00,WUHU21623XXSP,2013-03-28 13:06:00,
2013-03-28 06:07:00,46.2,42.9,29.95,ESE,112,0.0,0.0,88,0.00,,,0.00,WUHU21623XXSP,2013-03-28 13:07:00,
2013-03-28 06:09:00,46.2,42.9,29.95,ESE,112,0.0,0.0,88,0.00,,,0.00,WUHU21623XXSP,2013-03-28 13:09:00,
2013-03-28 06:11:00,46.2,42.9,29.96,ESE,112,0.0,0.0,88,0.00,,,0.00,WUHU21623XXSP,2013-03-28 13:11:00,
2013-03-28 06:12:00,46.4,43.1,29.96,ESE,112,0.0,0.0,88,0.00,,,0.00,WUHU21623XXSP,2013-03-28 13:12:00,
2013-03-28 06:13:00,46.4,43.1,29.95,ESE,112,0.0,0.0,88,0.00,,,0.00,WUHU21623XXSP,2013-03-28 13:13:00,
2013-03-28 06:14:00,46.6,43.1,29.96,ESE,112,0.0,0.0,88,0.00,,,0.00,WUHU21623XXSP,2013-03-28 13:14:00,
2013-03-28 06:16:00,46.6,43.3,29.96,ESE,112,0.0,0.0,88,0.00,,,0.00,WUHU21623XXSP,2013-03-28 13:16:00,
2013-03-28 06:17:00,46.6,43.3,29.96,ESE,112,0.0,0.0,88,0.00,,,0.00,WUHU21623XXSP,2013-03-28 13:17:00,
2013-03-28 06:18:00,46.6,43.3,29.96,ESE,112,0.0,0.0,88,0.00,,,0.00,WUHU21623XXSP,2013-03-28 13:18:00,
2013-03-28 06:19:00,46.6,43.3,29.96,ESE,112,0.0,0.0,88,0.00,,,0.00,WUHU21623XXSP,2013-03-28 13:19:00,
2013-03-28 06:22:00,46.6,43.3,29.96,ESE,112,0.0,0.0,88,0.00,,,0.00,WUHU21623XXSP,2013-03-28 13:22:00,
2013-03-28 06:23:00,46.6,43.3,29.96,ESE,112,0.0,0.0,88,0.00,,,0.00,WUHU21623XXSP,2013-03-28 13:23:00,
2013-03-28 06:24:00,46.6,43.3,29.96,ESE,112,0.0,0.0,88,0.00,,,0.00,WUHU21623XXSP,2013-03-28 13:24:00,
2013-03-28 06:27:00,46.6,43.3,29.96,ESE,112,0.0,0.0,88,0.00,,,0.00,WUHU21623XXSP,2013-03-28 13:27:00,
2013-03-28 06:28:00,46.6,43.3,29.96,ESE,112,0.0,0.0,88,0.00,,,0.00,WUHU21623XXSP,2013-03-28 13:28:00,
2013-03-28 06:29:00,46.6,43.3,29.96,ESE,112,0.0,0.0,88,0.00,,,0.00,WUHU21623XXSP,2013-03-28 13:29:00,
2013-03-28 06:32:00,46.6,43.3,29.96,ESE,112,0.0,0.0,88,0.00,,,0.00,WUHU21623XXSP,2013-03-28 13:32:00,
2013-03-28 06:33:00,46.6,43.3,29.96,ESE,112,0.0,0.0,88,0.00,,,0.00,WUHU21623XXSP,2013-03-28 13:33:00,
2013-03-28 06:34:00,46.6,43.3,29.96,ESE,112,0.0,0.0,88,0.00,,,0.00,WUHU21623XXSP,2013-03-28 13:34:00,
2013-03-28 06:37:00,46.6,43.3,29.96,ESE,112,0.0,0.0,88,0.00,,,0.00,WUHU21623XXSP,2013-03-28 13:37:00,
2013-03-28 06:38:00,46.6,43.3,29.96,ESE,112,0.0,0.0,88,0.00,,,0.00,WUHU21623XXSP,2013-03-28 13:38:00,
2013-03-28 06:39:00,46.6,43.3,29.96,ESE,112,0.0,0.0,88,0.00,,,0.00,WUHU21623XXSP,2013-03-28 13:39:00,
2013-03-28 06:43:00,46.6,43.3,29.96,ESE,112,0.0,0.0,88,0.00,,,0.00,WUHU21623XXSP,2013-03-28 13:43:00,
2013-03-28 06:44:00,46.6,43.3,29.97,ESE,112,0.0,0.0,88,0.00,,,0.00,WUHU21623XXSP,2013-03-28 13:44:00,
2013-03-28 06:48:00,46.6,43.3,29.96,ENE,67,0.0,0.0,88,0.00,,,0.00,WUHU21623XXSP,2013-03-28 13:48:00,
2013-03-28 06:50:00,46.6,43.3,29.97,ENE,67,0.0,0.0,88,0.00,,,0.00,WUHU21623XXSP,2013-03-28 13:50:00,
2013-03-28 06:53:00,46.6,43.3,29.96,ENE,67,0.0,0.0,88,0.00,,,0.00,WUHU21623XXSP,2013-03-28 13:53:00,
2013-03-28 06:54:00,46.6,43.3,29.96,ENE,67,0.0,0.0,88,0.00,,,0.00,WUHU21623XXSP,2013-03-28 13:54:00,
2013-03-28 06:55:00,46.6,43.3,29.96,ENE,67,0.0,0.0,88,0.00,,,0.00,WUHU21623XXSP,2013-03-28 13:55:00,
2013-03-28 06:58:00,46.6,43.3,29.96,ENE,67,0.0,0.0,88,0.00,,,0.00,WUHU21623XXSP,2013-03-28 13:58:00,
2013-03-28 06:59:00,46.6,43.3,29.96,ENE,67,0.0,0.0,88,0.00,,,0.00,WUHU21623XXSP,2013-03-28 13:59:00,
2013-03-28 07:00:00,46.6,43.3,29.96,ESE,112,0.0,0.0,88,0.00,,,0.00,WUHU21623XXSP,2013-03-28 14:00:00,
2013-03-28 07:03:00,46.6,43.3,29.96,ESE,112,0.0,0.0,88,0.00,,,0.00,WUHU21623XXSP,2013-03-28 14:03:00,
2013-03-28 07:04:00,46.6,43.3,29.96,ESE,112,0.0,0.0,88,0.00,,,0.00,WUHU21623XXSP,2013-03-28 14:04:00,
2013-03-28 07:05:00,46.6,43.3,29.96,ESE,112,0.0,0.0,88,0.00,,,0.00,WUHU21623XXSP,2013-03-28 14:05:00,
2013-03-28 07:08:00,46.6,43.3,29.97,ESE,112,0.0,0.0,88,0.00,,,0.00,WUHU21623XXSP,2013-03-28 14:08:00,
2013-03-28 07:09:00,46.6,43.3,29.97,ESE,112,0.0,0.0,88,0.00,,,0.00,WUHU21623XXSP,2013-03-28 14:09:00,
2013-03-28 07:10:00,46.6,43.3,29.97,ESE,112,0.0,0.0,88,0.00,,,0.00,WUHU21623XXSP,2013-03-28 14:10:00,
2013-03-28 07:11:00,46.6,43.3,29.97,ESE,112,0.0,0.0,88,0.00,,,0.00,WUHU21623XXSP,2013-03-28 14:11:00,
2013-03-28 07:13:00,46.6,43.6,29.97,ESE,112,0.0,0.0,89,0.00,,,0.00,WUHU21623XXSP,2013-03-28 14:13:00,
2013-03-28 07:14:00,46.6,43.6,29.97,ESE,112,0.0,0.0,89,0.00,,,0.00,WUHU21623XXSP,2013-03-28 14:14:00,
2013-03-28 07:15:00,46.6,43.6,29.97,ESE,112,0.0,0.0,89,0.00,,,0.00,WUHU21623XXSP,2013-03-28 14:15:00,
2013-03-28 07:17:00,46.6,43.6,29.97,ESE,112,0.0,0.0,89,0.00,,,0.00,WUHU21623XXSP,2013-03-28 14:17:00,
2013-03-28 07:18:00,46.6,43.6,29.97,ESE,112,0.0,0.0,89,0.00,,,0.00,WUHU21623XXSP,2013-03-28 14:18:00,
2013-03-28 07:19:00,46.6,43.6,29.97,ESE,112,0.0,0.0,89,0.00,,,0.00,WUHU21623XXSP,2013-03-28 14:19:00,
2013-03-28 07:20:00,46.6,43.6,29.97,ESE,112,0.0,0.0,89,0.00,,,0.00,WUHU21623XXSP,2013-03-28 14:20:00,
2013-03-28 07:22:00,46.6,43.6,29.97,ESE,112,0.0,0.0,89,0.00,,,0.00,WUHU21623XXSP,2013-03-28 14:22:00,
2013-03-28 07:23:00,46.6,43.6,29.97,ESE,112,0.0,0.0,89,0.00,,,0.00,WUHU21623XXSP,2013-03-28 14:23:00,
2013-03-28 07:24:00,46.6,43.6,29.97,ESE,112,0.0,0.0,89,0.00,,,0.00,WUHU21623XXSP,2013-03-28 14:24:00,
2013-03-28 07:25:00,46.6,43.6,29.97,ESE,112,0.0,0.0,89,0.00,,,0.00,WUHU21623XXSP,2013-03-28 14:25:00,
2013-03-28 07:27:00,46.6,43.7,29.97,ESE,112,0.0,0.0,89,0.00,,,0.00,WUHU21623XXSP,2013-03-28 14:27:00,
2013-03-28 07:29:00,46.6,43.6,29.97,ESE,112,0.0,0.0,89,0.00,,,0.00,WUHU21623XXSP,2013-03-28 14:29:00,
2013-03-28 07:30:00,46.8,43.7,29.97,ESE,112,0.0,0.0,89,0.00,,,0.00,WUHU21623XXSP,2013-03-28 14:30:00,
2013-03-28 07:32:00,46.8,43.7,29.97,ESE,112,0.0,0.0,89,0.00,,,0.00,WUHU21623XXSP,2013-03-28 14:32:00,
2013-03-28 07:34:00,46.8,43.7,29.97,ESE,112,0.0,0.0,89,0.00,,,0.00,WUHU21623XXSP,2013-03-28 14:34:00,
2013-03-28 07:35:00,46.8,43.7,29.97,ESE,112,0.0,0.0,89,0.00,,,0.00,WUHU21623XXSP,2013-03-28 14:35:00,
2013-03-28 07:37:00,46.8,43.7,29.97,ESE,112,0.0,0.0,89,0.00,,,0.00,WUHU21623XXSP,2013-03-28 14:37:00,
2013-03-28 07:39:00,46.8,43.7,29.97,ESE,112,0.0,0.0,89,0.00,,,0.00,WUHU21623XXSP,2013-03-28 14:39:00,
2013-03-28 07:40:00,46.9,43.9,29.97,ESE,112,0.0,0.0,89,0.00,,,0.00,WUHU21623XXSP,2013-03-28 14:40:00,
2013-03-28 07:42:00,46.8,43.7,29.97,ESE,112,0.0,0.0,89,0.00,,,0.00,WUHU21623XXSP,2013-03-28 14:42:00,
2013-03-28 07:44:00,46.9,43.9,29.97,ESE,112,0.0,0.0,89,0.00,,,0.00,WUHU21623XXSP,2013-03-28 14:44:00,
2013-03-28 07:45:00,46.9,43.9,29.98,ESE,112,0.0,0.0,89,0.00,,,0.00,WUHU21623XXSP,2013-03-28 14:45:00,
2013-03-28 07:48:00,46.9,43.9,29.98,ESE,112,0.0,0.0,89,0.00,,,0.00,WUHU21623XXSP,2013-03-28 14:48:00,
2013-03-28 07:49:00,46.9,43.9,29.98,ESE,112,0.0,0.0,89,0.00,,,0.00,WUHU21623XXSP,2013-03-28 14:49:00,
2013-03-28 07:50:00,47.1,44.1,29.98,ESE,112,0.0,0.0,89,0.00,,,0.00,WUHU21623XXSP,2013-03-28 14:50:00,
2013-03-28 07:51:00,47.1,44.1,29.98,ESE,112,0.0,0.0,89,0.00,,,0.00,WUHU21623XXSP,2013-03-28 14:51:00,
2013-03-28 07:53:00,47.1,44.1,29.97,ESE,112,0.0,0.0,89,0.00,,,0.00,WUHU21623XXSP,2013-03-28 14:53:00,
2013-03-28 07:54:00,47.1,44.1,29.97,ESE,112,0.0,0.0,89,0.00,,,0.00,WUHU21623XXSP,2013-03-28 14:54:00,
2013-03-28 07:55:00,47.1,44.1,29.98,ESE,112,0.0,0.0,89,0.00,,,0.00,WUHU21623XXSP,2013-03-28 14:55:00,
2013-03-28 07:56:00,47.1,44.1,29.98,ESE,112,0.0,0.0,89,0.00,,,0.00,WUHU21623XXSP,2013-03-28 14:56:00,
2013-03-28 07:58:00,47.1,44.1,29.98,ESE,112,0.0,0.0,89,0.00,,,0.00,WUHU21623XXSP,2013-03-28 14:58:00,
2013-03-28 07:59:00,47.1,44.1,29.98,SE,135,0.0,0.0,89,0.00,,,0.00,WUHU21623XXSP,2013-03-28 14:59:00,
2013-03-28 08:00:00,47.1,44.1,29.98,SE,135,0.0,0.0,89,0.00,,,0.00,WUHU21623XXSP,2013-03-28 15:00:00,
2013-03-28 08:02:00,47.3,44.3,29.98,SSE,157,0.0,0.0,89,0.00,,,0.00,WUHU21623XXSP,2013-03-28 15:02:00,
2013-03-28 08:03:00,47.3,44.3,29.98,SSE,157,0.0,0.0,89,0.00,,,0.00,WUHU21623XXSP,2013-03-28 15:03:00,
2013-03-28 08:04:00,47.3,44.3,29.98,SSE,157,0.0,0.0,89,0.00,,,0.00,WUHU21623XXSP,2013-03-28 15:04:00,
2013-03-28 08:05:00,47.3,44.3,29.98,SSE,157,0.0,1.6,89,0.00,,,0.00,WUHU21623XXSP,2013-03-28 15:05:00,
2013-03-28 08:07:00,47.3,44.3,29.98,SSE,157,0.0,1.6,89,0.00,,,0.00,WUHU21623XXSP,2013-03-28 15:07:00,
2013-03-28 08:08:00,47.3,44.3,29.98,SE,135,0.0,1.6,89,0.02,,,0.02,WUHU21623XXSP,2013-03-28 15:08:00,
2013-03-28 08:09:00,47.3,44.3,29.98,SE,135,0.0,1.6,89,0.02,,,0.02,WUHU21623XXSP,2013-03-28 15:09:00,
2013-03-28 08:10:00,47.5,44.5,29.98,SE,135,0.0,1.6,89,0.02,,,0.02,WUHU21623XXSP,2013-03-28 15:10:00,
2013-03-28 08:12:00,47.5,44.5,29.98,SE,135,0.0,1.6,89,0.02,,,0.02,WUHU21623XXSP,2013-03-28 15:12:00,
2013-03-28 08:13:00,47.5,44.5,29.98,SE,135,0.0,1.6,89,0.02,,,0.02,WUHU21623XXSP,2013-03-28 15:13:00,
2013-03-28 08:14:00,47.5,44.5,29.98,SE,135,0.0,1.6,89,0.02,,,0.02,WUHU21623XXSP,2013-03-28 15:14:00,
2013-03-28 08:16:00,47.5,44.5,29.98,SE,135,0.0,0.0,89,0.02,,,0.02,WUHU21623XXSP,2013-03-28 15:16:00,
2013-03-28 08:17:00,47.5,44.5,29.98,SE,135,0.0,0.0,89,0.02,,,0.02,WUHU21623XXSP,2013-03-28 15:17:00,
2013-03-28 08:18:00,47.5,44.5,29.98,SE,135,0.0,0.0,89,0.02,,,0.02,WUHU21623XXSP,2013-03-28 15:18:00,
2013-03-28 08:19:00,47.5,44.5,29.98,SE,135,0.0,0.0,89,0.02,,,0.02,WUHU21623XXSP,2013-03-28 15:19:00,
2013-03-28 08:21:00,47.5,44.5,29.98,SE,135,0.0,0.0,89,0.02,,,0.02,WUHU21623XXSP,2013-03-28 15:21:00,
2013-03-28 08:22:00,47.7,44.6,29.98,SE,135,0.0,0.0,89,0.02,,,0.02,WUHU21623XXSP,2013-03-28 15:22:00,
2013-03-28 08:23:00,47.7,44.6,29.98,SE,135,0.0,0.0,89,0.02,,,0.02,WUHU21623XXSP,2013-03-28 15:23:00,
2013-03-28 08:25:00,47.7,44.6,29.98,SE,135,0.0,0.0,89,0.02,,,0.02,WUHU21623XXSP,2013-03-28 15:25:00,
2013-03-28 08:27:00,47.7,44.6,29.99,SE,135,0.0,0.0,89,0.02,,,0.02,WUHU21623XXSP,2013-03-28 15:27:00,
2013-03-28 08:28:00,47.8,44.8,29.99,SE,135,0.0,0.0,89,0.02,,,0.02,WUHU21623XXSP,2013-03-28 15:28:00,
2013-03-28 08:30:00,47.8,44.8,29.98,SE,135,0.0,0.0,89,0.02,,,0.02,WUHU21623XXSP,2013-03-28 15:30:00,
2013-03-28 08:32:00,48.0,45.0,29.98,SE,135,0.0,0.0,89,0.02,,,0.02,WUHU21623XXSP,2013-03-28 15:32:00,
2013-03-28 08:33:00,48.0,45.0,29.98,SE,135,0.0,0.0,89,0.02,,,0.02,WUHU21623XXSP,2013-03-28 15:33:00,
2013-03-28 08:35:00,48.0,45.0,29.98,SE,135,0.0,0.0,89,0.02,,,0.02,WUHU21623XXSP,2013-03-28 15:35:00,
2013-03-28 08:37:00,48.2,45.2,29.98,SE,135,0.0,0.0,89,0.02,,,0.02,WUHU21623XXSP,2013-03-28 15:37:00,
2013-03-28 08:38:00,48.2,45.2,29.98,SE,135,0.0,0.0,89,0.02,,,0.02,WUHU21623XXSP,2013-03-28 15:38:00,
2013-03-28 08:39:00,48.2,45.2,29.98,SE,135,0.0,0.0,89,0.02,,,0.02,WUHU21623XXSP,2013-03-28 15:39:00,
2013-03-28 08:40:00,48.4,45.3,29.99,SE,135,0.0,0.0,89,0.02,,,0.02,WUHU21623XXSP,2013-03-28 15:40:00,
2013-03-28 08:42:00,48.6,45.8,29.99,SE,135,0.0,0.0,90,0.02,,,0.02,WUHU21623XXSP,2013-03-28 15:42:00,
2013-03-28 08:43:00,48.6,45.8,29.99,SE,135,0.0,0.0,90,0.02,,,0.02,WUHU21623XXSP,2013-03-28 15:43:00,
2013-03-28 08:44:00,48.6,45.8,29.99,SE,135,0.0,0.0,90,0.02,,,0.02,WUHU21623XXSP,2013-03-28 15:44:00,
2013-03-28 08:45:00,48.6,45.8,29.99,SE,135,0.0,0.0,90,0.02,,,0.02,WUHU21623XXSP,2013-03-28 15:45:00,
2013-03-28 08:47:00,48.7,46.0,29.99,SE,135,0.0,0.0,90,0.02,,,0.02,WUHU21623XXSP,2013-03-28 15:47:00,
2013-03-28 08:48:00,48.6,45.8,29.99,SE,135,0.0,0.0,90,0.02,,,0.02,WUHU21623XXSP,2013-03-28 15:48:00,
2013-03-28 08:49:00,48.7,46.0,29.99,SE,135,0.0,0.0,90,0.02,,,0.02,WUHU21623XXSP,2013-03-28 15:49:00,
2013-03-28 08:50:00,48.7,46.0,29.99,SE,135,0.0,0.0,90,0.02,,,0.02,WUHU21623XXSP,2013-03-28 15:50:00,
2013-03-28 08:53:00,48.9,46.1,29.99,SE,135,0.0,0.0,90,0.02,,,0.02,WUHU21623XXSP,2013-03-28 15:53:00,
2013-03-28 08:54:00,48.9,46.1,29.98,SE,135,0.0,0.0,90,0.02,,,0.02,WUHU21623XXSP,2013-03-28 15:54:00,
2013-03-28 08:55:00,48.9,46.1,29.99,SE,135,0.0,0.0,90,0.02,,,0.02,WUHU21623XXSP,2013-03-28 15:55:00,
2013-03-28 08:58:00,49.1,46.3,29.99,SE,135,0.0,0.0,90,0.02,,,0.02,WUHU21623XXSP,2013-03-28 15:58:00,
2013-03-28 08:59:00,49.1,46.3,29.99,SE,135,0.0,0.0,90,0.02,,,0.02,WUHU21623XXSP,2013-03-28 15:59:00,
2013-03-28 09:01:00,49.3,46.5,29.99,SE,135,0.0,0.0,90,0.02,,,0.02,WUHU21623XXSP,2013-03-28 16:01:00,
2013-03-28 09:03:00,49.3,46.5,29.99,SE,135,0.0,0.0,90,0.02,,,0.02,WUHU21623XXSP,2013-03-28 16:03:00,
2013-03-28 09:04:00,49.3,46.5,29.99,SE,135,0.0,0.0,90,0.00,,,0.02,WUHU21623XXSP,2013-03-28 16:04:00,
2013-03-28 09:06:00,49.6,46.8,29.99,SE,135,0.0,0.0,90,0.00,,,0.02,WUHU21623XXSP,2013-03-28 16:06:00,
2013-03-28 09:08:00,49.6,46.8,29.99,SE,135,0.0,0.0,90,0.00,,,0.02,WUHU21623XXSP,2013-03-28 16:08:00,
2013-03-28 09:09:00,49.6,46.8,29.99,SE,135,0.0,0.0,90,0.00,,,0.02,WUHU21623XXSP,2013-03-28 16:09:00,
2013-03-28 09:11:00,49.6,46.8,29.99,SE,135,0.0,0.0,90,0.00,,,0.02,WUHU21623XXSP,2013-03-28 16:11:00,
2013-03-28 09:13:00,49.8,47.0,29.99,SE,135,0.0,0.0,90,0.00,,,0.02,WUHU21623XXSP,2013-03-28 16:13:00,
2013-03-28 09:14:00,49.8,47.0,29.99,SE,135,0.0,0.0,90,0.00,,,0.02,WUHU21623XXSP,2013-03-28 16:14:00,
2013-03-28 09:15:00,49.8,47.0,29.99,SE,135,0.0,0.0,90,0.00,,,0.02,WUHU21623XXSP,2013-03-28 16:15:00,
2013-03-28 09:16:00,49.8,47.0,29.99,SE,135,0.0,0.0,90,0.00,,,0.02,WUHU21623XXSP,2013-03-28 16:16:00,
2013-03-28 09:18:00,50.0,47.1,29.99,SE,135,0.0,0.0,90,0.00,,,0.02,WUHU21623XXSP,2013-03-28 16:18:00,
2013-03-28 09:19:00,50.2,47.3,29.99,SE,135,0.0,0.0,90,0.00,,,0.02,WUHU21623XXSP,2013-03-28 16:19:00,
2013-03-28 09:20:00,50.2,47.3,29.99,SE,135,0.0,0.0,90,0.00,,,0.02,WUHU21623XXSP,2013-03-28 16:20:00,
2013-03-28 09:22:00,50.2,47.3,29.99,SE,135,0.0,0.0,90,0.00,,,0.02,WUHU21623XXSP,2013-03-28 16:22:00,
2013-03-28 09:23:00,50.4,47.5,29.99,SE,135,0.0,0.0,90,0.00,,,0.02,WUHU21623XXSP,2013-03-28 16:23:00,
2013-03-28 09:24:00,50.4,47.5,29.99,SE,135,0.0,0.0,90,0.00,,,0.02,WUHU21623XXSP,2013-03-28 16:24:00,
2013-03-28 09:25:00,50.4,47.5,29.99,SE,135,0.0,0.0,90,0.00,,,0.02,WUHU21623XXSP,2013-03-28 16:25:00,
2013-03-28 09:28:00,50.5,47.7,29.99,SE,135,0.0,0.0,90,0.00,,,0.02,WUHU21623XXSP,2013-03-28 16:28:00,
2013-03-28 09:29:00,50.5,47.7,29.99,SE,135,0.0,0.0,90,0.00,,,0.02,WUHU21623XXSP,2013-03-28 16:29:00,
2013-03-28 09:31:00,50.7,47.8,29.99,SE,135,0.0,0.0,90,0.00,,,0.02,WUHU21623XXSP,2013-03-28 16:31:00,
2013-03-28 09:33:00,50.9,48.3,29.99,SE,135,0.0,0.0,91,0.00,,,0.02,WUHU21623XXSP,2013-03-28 16:33:00,
2013-03-28 09:34:00,50.7,48.1,29.99,SE,135,0.0,0.0,91,0.00,,,0.02,WUHU21623XXSP,2013-03-28 16:34:00,
2013-03-28 09:36:00,51.1,48.5,29.99,SE,135,0.0,0.0,91,0.00,,,0.02,WUHU21623XXSP,2013-03-28 16:36:00,
2013-03-28 09:38:00,51.1,48.5,29.99,North,0,0.2,0.2,91,0.00,,,0.02,WUHU21623XXSP,2013-03-28 16:38:00,
2013-03-28 09:39:00,51.4,48.8,29.99,NNE,22,0.0,0.2,91,0.00,,,0.02,WUHU21623XXSP,2013-03-28 16:39:00,
2013-03-28 09:41:00,51.3,48.8,29.99,NNE,22,0.0,0.2,91,0.00,,,0.02,WUHU21623XXSP,2013-03-28 16:41:00,
2013-03-28 09:43:00,51.4,48.8,29.99,NNE,22,0.0,0.2,91,0.00,,,0.02,WUHU21623XXSP,2013-03-28 16:43:00,
2013-03-28 09:44:00,51.4,48.8,29.99,NNE,22,0.0,0.2,91,0.00,,,0.02,WUHU21623XXSP,2013-03-28 16:44:00,
2013-03-28 09:46:00,51.6,49.0,29.99,NNE,22,0.0,0.2,91,0.00,,,0.02,WUHU21623XXSP,2013-03-28 16:46:00,
2013-03-28 09:48:00,51.6,49.0,29.99,ENE,67,0.0,0.0,91,0.00,,,0.02,WUHU21623XXSP,2013-03-28 16:48:00,
2013-03-28 09:49:00,51.6,49.0,29.99,ENE,67,0.0,0.0,91,0.00,,,0.02,WUHU21623XXSP,2013-03-28 16:49:00,
2013-03-28 09:50:00,51.6,49.0,29.99,ENE,67,0.0,0.0,91,0.00,,,0.02,WUHU21623XXSP,2013-03-28 16:50:00,
2013-03-28 09:51:00,51.8,49.2,29.99,ENE,67,0.0,0.0,91,0.00,,,0.02,WUHU21623XXSP,2013-03-28 16:51:00,
2013-03-28 09:53:00,52.0,49.4,29.99,ENE,67,0.0,0.0,91,0.00,,,0.02,WUHU21623XXSP,2013-03-28 16:53:00,
2013-03-28 09:54:00,52.0,49.4,29.99,ENE,67,0.0,0.0,91,0.00,,,0.02,WUHU21623XXSP,2013-03-28 16:54:00,
2013-03-28 09:55:00,52.0,49.4,29.99,ENE,67,0.0,0.0,91,0.00,,,0.02,WUHU21623XXSP,2013-03-28 16:55:00,
2013-03-28 09:57:00,52.0,49.1,29.99,ENE,67,0.0,0.0,90,0.00,,,0.02,WUHU21623XXSP,2013-03-28 16:57:00,
2013-03-28 09:58:00,52.2,49.3,29.99,ENE,67,0.0,0.0,90,0.00,,,0.02,WUHU21623XXSP,2013-03-28 16:58:00,
2013-03-28 09:59:00,52.2,49.3,29.99,ENE,67,0.0,0.0,90,0.00,,,0.02,WUHU21623XXSP,2013-03-28 16:59:00,
2013-03-28 10:00:00,52.3,49.5,29.99,ENE,67,0.0,0.0,90,0.00,,,0.02,WUHU21623XXSP,2013-03-28 17:00:00,
2013-03-28 10:02:00,52.3,49.5,29.99,ENE,67,0.0,0.0,90,0.00,,,0.02,WUHU21623XXSP,2013-03-28 17:02:00,
2013-03-28 10:03:00,52.3,49.5,29.99,ENE,67,0.0,0.0,90,0.00,,,0.02,WUHU21623XXSP,2013-03-28 17:03:00,
2013-03-28 10:04:00,52.5,49.6,29.99,ENE,67,0.0,0.0,90,0.00,,,0.02,WUHU21623XXSP,2013-03-28 17:04:00,
2013-03-28 10:05:00,52.5,49.6,29.99,ENE,67,0.0,0.0,90,0.00,,,0.02,WUHU21623XXSP,2013-03-28 17:05:00,
2013-03-28 10:07:00,52.5,49.6,29.99,NE,45,0.0,0.0,90,0.00,,,0.02,WUHU21623XXSP,2013-03-28 17:07:00,
2013-03-28 10:08:00,52.7,49.6,29.99,NE,45,0.0,0.0,90,0.00,,,0.02,WUHU21623XXSP,2013-03-28 17:08:00,
2013-03-28 10:09:00,52.7,49.8,29.99,NE,45,0.0,0.0,90,0.00,,,0.02,WUHU21623XXSP,2013-03-28 17:09:00,
2013-03-28 10:10:00,52.7,49.8,29.99,NE,45,0.0,0.0,90,0.00,,,0.02,WUHU21623XXSP,2013-03-28 17:10:00,
2013-03-28 10:13:00,52.9,50.0,29.99,SE,135,0.0,0.0,90,0.00,,,0.02,WUHU21623XXSP,2013-03-28 17:13:00,
2013-03-28 10:14:00,52.9,50.0,29.99,ESE,112,0.0,0.0,90,0.00,,,0.02,WUHU21623XXSP,2013-03-28 17:14:00,
2013-03-28 10:15:00,52.9,50.0,29.99,ESE,112,0.0,0.0,90,0.00,,,0.02,WUHU21623XXSP,2013-03-28 17:15:00,
2013-03-28 10:18:00,53.2,50.4,29.99,ESE,112,0.0,0.0,90,0.00,,,0.02,WUHU21623XXSP,2013-03-28 17:18:00,
2013-03-28 10:19:00,53.2,50.1,29.99,NNE,22,0.0,0.0,89,0.00,,,0.02,WUHU21623XXSP,2013-03-28 17:19:00,
2013-03-28 10:20:00,53.4,50.2,29.99,NNE,22,0.0,0.0,89,0.00,,,0.02,WUHU21623XXSP,2013-03-28 17:20:00,
2013-03-28 10:23:00,53.4,50.2,29.99,NNE,22,0.0,0.0,89,0.00,,,0.02,WUHU21623XXSP,2013-03-28 17:23:00,
2013-03-28 10:24:00,53.6,50.4,29.99,ENE,67,0.0,0.0,89,0.00,,,0.02,WUHU21623XXSP,2013-03-28 17:24:00,
2013-03-28 10:25:00,53.8,50.6,29.99,ENE,67,0.0,0.0,89,0.00,,,0.02,WUHU21623XXSP,2013-03-28 17:25:00,
2013-03-28 10:26:00,53.8,50.6,29.99,WNW,292,0.0,0.0,89,0.00,,,0.02,WUHU21623XXSP,2013-03-28 17:26:00,
2013-03-28 10:28:00,54.0,50.8,29.99,NW,315,0.0,0.0,89,0.00,,,0.02,WUHU21623XXSP,2013-03-28 17:28:00,
2013-03-28 10:29:00,54.1,50.9,29.99,WNW,292,0.0,0.0,89,0.00,,,0.02,WUHU21623XXSP,2013-03-28 17:29:00,
2013-03-28 10:30:00,54.1,50.9,29.99,WNW,292,0.0,0.0,89,0.00,,,0.02,WUHU21623XXSP,2013-03-28 17:30:00,
2013-03-28 10:31:00,54.3,51.1,29.99,NW,315,0.0,0.0,89,0.00,,,0.02,WUHU21623XXSP,2013-03-28 17:31:00,
2013-03-28 10:33:00,54.5,51.3,29.99,West,270,0.0,0.0,89,0.00,,,0.02,WUHU21623XXSP,2013-03-28 17:33:00,
2013-03-28 10:34:00,54.7,51.5,30.00,West,270,0.0,0.0,89,0.00,,,0.02,WUHU21623XXSP,2013-03-28 17:34:00,
2013-03-28 10:35:00,54.7,51.5,29.99,SSE,157,0.0,0.0,89,0.00,,,0.02,WUHU21623XXSP,2013-03-28 17:35:00,
2013-03-28 10:36:00,54.7,51.5,30.00,SSE,157,0.0,0.0,89,0.00,,,0.02,WUHU21623XXSP,2013-03-28 17:36:00,
2013-03-28 10:38:00,55.0,51.5,30.00,SSE,157,0.0,0.0,88,0.00,,,0.02,WUHU21623XXSP,2013-03-28 17:38:00,
2013-03-28 10:40:00,55.2,51.7,30.00,West,270,0.0,2.2,88,0.00,,,0.02,WUHU21623XXSP,2013-03-28 17:40:00,
2013-03-28 10:41:00,55.4,51.9,30.00,West,270,0.0,2.2,88,0.00,,,0.02,WUHU21623XXSP,2013-03-28 17:41:00,
2013-03-28 10:43:00,55.8,52.2,30.00,NE,45,0.0,2.2,88,0.00,,,0.02,WUHU21623XXSP,2013-03-28 17:43:00,
2013-03-28 10:45:00,55.9,52.4,30.00,ENE,67,0.0,2.2,88,0.00,,,0.02,WUHU21623XXSP,2013-03-28 17:45:00,
2013-03-28 10:47:00,56.1,52.6,30.00,SSE,157,0.0,2.2,88,0.00,,,0.02,WUHU21623XXSP,2013-03-28 17:47:00,
2013-03-28 10:48:00,56.3,52.8,30.00,SE,135,0.0,2.2,88,0.00,,,0.02,WUHU21623XXSP,2013-03-28 17:48:00,
2013-03-28 10:50:00,56.5,53.0,30.00,NNE,22,0.0,1.8,88,0.00,,,0.02,WUHU21623XXSP,2013-03-28 17:50:00,
2013-03-28 10:51:00,56.5,52.6,30.00,NE,45,0.0,1.8,87,0.00,,,0.02,WUHU21623XXSP,2013-03-28 17:51:00,
2013-03-28 10:52:00,56.8,53.0,30.00,West,270,0.0,1.8,87,0.00,,,0.02,WUHU21623XXSP,2013-03-28 17:52:00,
2013-03-28 10:54:00,57.0,53.2,30.00,West,270,0.0,1.6,87,0.00,,,0.02,WUHU21623XXSP,2013-03-28 17:54:00,
2013-03-28 10:55:00,57.0,52.8,30.00,South,180,0.0,1.6,86,0.00,,,0.02,WUHU21623XXSP,2013-03-28 17:55:00,
2013-03-28 10:56:00,57.0,52.8,30.00,South,180,0.0,1.6,86,0.00,,,0.02,WUHU21623XXSP,2013-03-28 17:56:00,
2013-03-28 10:58:00,57.0,52.8,30.00,South,180,0.0,1.6,86,0.00,,,0.02,WUHU21623XXSP,2013-03-28 17:58:00,
2013-03-28 10:59:00,57.4,53.2,30.00,SSW,202,0.0,1.6,86,0.00,,,0.02,WUHU21623XXSP,2013-03-28 17:59:00,
2013-03-28 11:00:00,57.4,53.2,30.00,SSW,202,0.0,1.3,86,0.00,,,0.02,WUHU21623XXSP,2013-03-28 18:00:00,
2013-03-28 11:02:00,57.6,53.1,30.00,SW,225,2.5,2.5,85,0.00,,,0.02,WUHU21623XXSP,2013-03-28 18:02:00,
2013-03-28 11:03:00,57.7,53.2,30.00,WSW,247,0.0,2.5,85,0.00,,,0.02,WUHU21623XXSP,2013-03-28 18:03:00,
2013-03-28 11:05:00,57.7,53.2,30.00,West,270,0.0,2.5,85,0.00,,,0.02,WUHU21623XXSP,2013-03-28 18:05:00,
2013-03-28 11:08:00,57.7,52.9,30.00,WSW,247,0.0,2.5,84,0.00,,,0.02,WUHU21623XXSP,2013-03-28 18:08:00,
2013-03-28 11:10:00,57.7,52.9,30.00,SW,225,0.0,2.5,84,0.00,,,0.02,WUHU21623XXSP,2013-03-28 18:10:00,
2013-03-28 11:13:00,57.9,52.8,30.00,West,270,0.0,2.2,83,0.00,,,0.02,WUHU21623XXSP,2013-03-28 18:13:00,
2013-03-28 11:14:00,57.9,52.8,30.00,West,270,0.0,2.2,83,0.00,,,0.02,WUHU21623XXSP,2013-03-28 18:14:00,
2013-03-28 11:15:00,57.9,52.8,30.00,West,270,0.0,0.0,83,0.00,,,0.02,WUHU21623XXSP,2013-03-28 18:15:00,
2013-03-28 11:18:00,58.1,53.0,30.00,West,270,2.0,2.5,83,0.00,,,0.02,WUHU21623XXSP,2013-03-28 18:18:00,
2013-03-28 11:19:00,58.3,53.1,30.00,NW,315,1.6,2.5,83,0.00,,,0.02,WUHU21623XXSP,2013-03-28 18:19:00,
2013-03-28 11:20:00,58.3,53.1,30.00,NW,315,0.0,2.5,83,0.00,,,0.02,WUHU21623XXSP,2013-03-28 18:20:00,
2013-03-28 11:24:00,58.6,53.5,30.00,SW,225,4.7,6.5,83,0.00,,,0.02,WUHU21623XXSP,2013-03-28 18:24:00,
2013-03-28 11:25:00,58.6,53.2,30.00,WSW,247,0.0,6.5,82,0.00,,,0.02,WUHU21623XXSP,2013-03-28 18:25:00,
2013-03-28 11:29:00,58.8,53.3,30.00,WSW,247,2.0,6.5,82,0.00,,,0.02,WUHU21623XXSP,2013-03-28 18:29:00,
2013-03-28 11:30:00,58.6,53.2,30.00,West,270,0.0,6.5,82,0.00,,,0.02,WUHU21623XXSP,2013-03-28 18:30:00,
2013-03-28 11:34:00,58.8,53.0,30.00,WNW,292,0.0,5.8,81,0.00,,,0.02,WUHU21623XXSP,2013-03-28 18:34:00,
2013-03-28 11:35:00,58.8,53.0,30.01,North,0,0.0,5.8,81,0.00,,,0.02,WUHU21623XXSP,2013-03-28 18:35:00,
2013-03-28 11:39:00,58.6,52.5,30.00,WNW,292,0.0,5.8,80,0.00,,,0.02,WUHU21623XXSP,2013-03-28 18:39:00,
2013-03-28 11:40:00,58.6,52.5,30.00,WSW,247,3.4,5.8,80,0.00,,,0.02,WUHU21623XXSP,2013-03-28 18:40:00,
2013-03-28 11:41:00,58.8,52.7,30.01,South,180,3.6,5.8,80,0.00,,,0.02,WUHU21623XXSP,2013-03-28 18:41:00,
2013-03-28 11:45:00,58.8,52.3,30.01,WSW,247,0.0,5.4,80,0.00,,,0.02,WUHU21623XXSP,2013-03-28 18:45:00,
2013-03-28 11:46:00,58.8,52.3,30.01,WSW,247,0.7,4.7,79,0.00,,,0.02,WUHU21623XXSP,2013-03-28 18:46:00,
2013-03-28 11:50:00,58.8,52.3,30.01,WSW,247,0.9,4.7,79,0.00,,,0.02,WUHU21623XXSP,2013-03-28 18:50:00,
2013-03-28 11:51:00,58.8,52.3,30.01,West,270,2.9,4.7,79,0.00,,,0.02,WUHU21623XXSP,2013-03-28 18:51:00,
2013-03-28 11:55:00,58.8,52.3,30.01,West,270,1.8,4.5,79,0.00,,,0.02,WUHU21623XXSP,2013-03-28 18:55:00,
2013-03-28 11:56:00,58.8,52.3,30.01,West,270,1.1,4.5,79,0.00,,,0.02,WUHU21623XXSP,2013-03-28 18:56:00,
2013-03-28 12:00:00,58.6,51.8,30.01,WSW,247,2.5,5.8,78,0.00,,,0.02,WUHU21623XXSP,2013-03-28 19:00:00,
2013-03-28 12:01:00,58.8,52.0,30.02,West,270,4.0,5.8,78,0.00,,,0.02,WUHU21623XXSP,2013-03-28 19:01:00,
2013-03-28 12:05:00,58.5,51.6,30.02,NW,315,3.8,5.8,78,0.00,,,0.02,WUHU21623XXSP,2013-03-28 19:05:00,
2013-03-28 12:06:00,58.5,51.6,30.02,West,270,0.0,5.8,78,0.00,,,0.02,WUHU21623XXSP,2013-03-28 19:06:00,
2013-03-28 12:10:00,58.3,51.1,30.02,WSW,247,0.0,5.8,77,0.00,,,0.02,WUHU21623XXSP,2013-03-28 19:10:00,
2013-03-28 12:11:00,58.1,50.9,30.02,West,270,0.0,5.8,77,0.00,,,0.02,WUHU21623XXSP,2013-03-28 19:11:00,
2013-03-28 12:12:00,58.1,51.3,30.02,West,270,3.6,5.8,78,0.00,,,0.02,WUHU21623XXSP,2013-03-28 19:12:00,
2013-03-28 12:15:00,57.9,51.1,30.02,SW,225,0.0,6.9,78,0.00,,,0.02,WUHU21623XXSP,2013-03-28 19:15:00,
2013-03-28 12:16:00,57.9,51.1,30.02,SW,225,0.0,6.9,78,0.00,,,0.02,WUHU21623XXSP,2013-03-28 19:16:00,
2013-03-28 12:17:00,57.9,51.1,30.02,North,0,0.0,6.9,78,0.00,,,0.02,WUHU21623XXSP,2013-03-28 19:17:00,
2013-03-28 12:20:00,57.7,50.5,30.02,WSW,247,4.9,6.9,77,0.00,,,0.02,WUHU21623XXSP,2013-03-28 19:20:00,
2013-03-28 12:21:00,57.7,50.5,30.02,West,270,6.3,6.9,77,0.00,,,0.02,WUHU21623XXSP,2013-03-28 19:21:00,
2013-03-28 12:22:00,57.6,50.4,30.03,NW,315,3.8,6.3,77,0.00,,,0.02,WUHU21623XXSP,2013-03-28 19:22:00,
2013-03-28 12:25:00,57.4,50.2,30.03,WNW,292,0.0,6.3,77,0.00,,,0.02,WUHU21623XXSP,2013-03-28 19:25:00,
2013-03-28 12:27:00,57.4,50.5,30.03,WNW,292,4.0,6.3,78,0.00,,,0.02,WUHU21623XXSP,2013-03-28 19:27:00,
2013-03-28 12:31:00,57.4,50.5,30.03,NNW,337,0.0,6.5,78,0.00,,,0.02,WUHU21623XXSP,2013-03-28 19:31:00,
2013-03-28 12:32:00,57.0,50.2,30.03,West,270,1.1,6.5,78,0.00,,,0.02,WUHU21623XXSP,2013-03-28 19:32:00,
2013-03-28 12:33:00,57.0,50.2,30.02,NW,315,0.7,6.5,78,0.00,,,0.02,WUHU21623XXSP,2013-03-28 19:33:00,
2013-03-28 12:36:00,57.0,49.8,30.02,NW,315,1.3,6.5,77,0.00,,,0.02,WUHU21623XXSP,2013-03-28 19:36:00,
2013-03-28 12:37:00,57.0,49.8,30.02,WSW,247,0.0,6.5,77,0.00,,,0.02,WUHU21623XXSP,2013-03-28 19:37:00,
2013-03-28 12:38:00,57.0,49.8,30.03,North,0,0.0,6.5,77,0.00,,,0.02,WUHU21623XXSP,2013-03-28 19:38:00,
2013-03-28 12:42:00,57.0,50.2,30.03,SW,225,1.8,4.7,78,0.00,,,0.02,WUHU21623XXSP,2013-03-28 19:42:00,
2013-03-28 12:43:00,57.0,50.2,30.03,West,270,0.0,6.9,78,0.00,,,0.02,WUHU21623XXSP,2013-03-28 19:43:00,
2013-03-28 12:47:00,57.0,50.2,30.03,WNW,292,3.8,6.9,78,0.00,,,0.02,WUHU21623XXSP,2013-03-28 19:47:00,
2013-03-28 12:48:00,57.0,50.2,30.03,NW,315,0.0,6.9,78,0.00,,,0.02,WUHU21623XXSP,2013-03-28 19:48:00,
2013-03-28 12:52:00,57.4,50.5,30.03,North,0,0.0,4.9,78,0.00,,,0.02,WUHU21623XXSP,2013-03-28 19:52:00,
2013-03-28 12:53:00,57.4,50.5,30.03,West,270,0.0,3.8,78,0.00,,,0.02,WUHU21623XXSP,2013-03-28 19:53:00,
2013-03-28 12:57:00,57.4,50.5,30.03,WSW,247,1.8,3.4,78,0.00,,,0.02,WUHU21623XXSP,2013-03-28 19:57:00,
2013-03-28 12:58:00,57.4,50.5,30.03,West,270,0.0,4.9,78,0.00,,,0.02,WUHU21623XXSP,2013-03-28 19:58:00,
2013-03-28 13:03:00,57.6,50.7,30.03,WNW,292,0.0,5.4,78,0.00,,,0.02,WUHU21623XXSP,2013-03-28 20:03:00,
2013-03-28 13:04:00,57.6,50.4,30.03,WNW,292,3.8,5.4,77,0.00,,,0.02,WUHU21623XXSP,2013-03-28 20:04:00,
2013-03-28 13:08:00,57.6,50.4,30.03,WNW,292,0.0,7.6,77,0.00,,,0.02,WUHU21623XXSP,2013-03-28 20:08:00,
2013-03-28 13:09:00,57.6,50.4,30.03,West,270,4.0,7.6,77,0.00,,,0.02,WUHU21623XXSP,2013-03-28 20:09:00,
2013-03-28 13:13:00,57.4,50.2,30.03,SW,225,0.0,7.6,77,0.00,,,0.02,WUHU21623XXSP,2013-03-28 20:13:00,
2013-03-28 13:14:00,57.4,50.2,30.03,NW,315,1.8,7.6,78,0.00,,,0.02,WUHU21623XXSP,2013-03-28 20:14:00,
2013-03-28 13:18:00,57.4,50.5,30.03,SW,225,1.8,6.3,78,0.00,,,0.02,WUHU21623XXSP,2013-03-28 20:18:00,
2013-03-28 13:19:00,57.4,50.5,30.03,WNW,292,2.0,5.4,78,0.00,,,0.02,WUHU21623XXSP,2013-03-28 20:19:00,
2013-03-28 13:23:00,57.2,50.0,30.03,North,0,0.0,6.9,77,0.00,,,0.02,WUHU21623XXSP,2013-03-28 20:23:00,
2013-03-28 13:24:00,57.4,50.2,30.03,NNW,337,2.9,6.9,77,0.00,,,0.02,WUHU21623XXSP,2013-03-28 20:24:00,
2013-03-28 13:28:00,57.0,49.8,30.03,NW,315,0.0,6.9,77,0.00,,,0.02,WUHU21623XXSP,2013-03-28 20:28:00,
2013-03-28 13:29:00,57.2,50.4,30.03,West,270,0.0,6.9,78,0.00,,,0.02,WUHU21623XXSP,2013-03-28 20:29:00,
2013-03-28 13:30:00,57.0,50.2,30.03,West,270,0.0,6.9,78,0.00,,,0.02,WUHU21623XXSP,2013-03-28 20:30:00,
2013-03-28 13:33:00,57.0,50.2,30.04,NW,315,0.0,5.4,78,0.00,,,0.02,WUHU21623XXSP,2013-03-28 20:33:00,
2013-03-28 13:34:00,57.0,50.2,30.04,NW,315,0.0,5.4,78,0.00,,,0.02,WUHU21623XXSP,2013-03-28 20:34:00,
2013-03-28 13:35:00,57.0,50.2,30.03,WNW,292,0.0,4.5,78,0.00,,,0.02,WUHU21623XXSP,2013-03-28 20:35:00,
2013-03-28 13:38:00,57.0,50.2,30.03,West,270,0.0,4.0,78,0.00,,,0.02,WUHU21623XXSP,2013-03-28 20:38:00,
2013-03-28 13:39:00,57.0,50.2,30.03,NW,315,0.0,4.0,78,0.00,,,0.02,WUHU21623XXSP,2013-03-28 20:39:00,
2013-03-28 13:40:00,57.2,50.4,30.03,WNW,292,0.0,4.0,78,0.00,,,0.02,WUHU21623XXSP,2013-03-28 20:40:00,
2013-03-28 13:44:00,57.2,50.4,30.03,West,270,6.7,6.7,78,0.00,,,0.02,WUHU21623XXSP,2013-03-28 20:44:00,
2013-03-28 13:46:00,57.4,50.5,30.03,WNW,292,4.0,6.7,78,0.00,,,0.02,WUHU21623XXSP,2013-03-28 20:46:00,
2013-03-28 13:49:00,57.2,50.4,30.03,West,270,0.0,6.7,78,0.00,,,0.02,WUHU21623XXSP,2013-03-28 20:49:00,
2013-03-28 13:51:00,57.4,50.5,30.03,NW,315,0.0,6.7,78,0.00,,,0.02,WUHU21623XXSP,2013-03-28 20:51:00,
2013-03-28 13:54:00,57.4,50.9,30.03,West,270,0.0,6.0,79,0.00,,,0.02,WUHU21623XXSP,2013-03-28 20:54:00,
2013-03-28 13:55:00,57.6,51.1,30.03,NNW,337,0.0,4.0,79,0.00,,,0.02,WUHU21623XXSP,2013-03-28 20:55:00,
2013-03-28 13:57:00,57.7,50.9,30.03,NW,315,0.0,3.1,78,0.00,,,0.02,WUHU21623XXSP,2013-03-28 20:57:00,
2013-03-28 13:59:00,57.9,51.1,30.04,North,0,0.0,3.6,78,0.00,,,0.02,WUHU21623XXSP,2013-03-28 20:59:00,
2013-03-28 14:00:00,57.9,51.1,30.03,WNW,292,2.0,3.6,78,0.00,,,0.02,WUHU21623XXSP,2013-03-28 21:00:00,
2013-03-28 14:02:00,58.1,51.3,30.03,NNW,337,0.0,3.6,78,0.00,,,0.02,WUHU21623XXSP,2013-03-28 21:02:00,
2013-03-28 14:04:00,58.3,51.4,30.03,NNW,337,0.0,3.6,78,0.00,,,0.02,WUHU21623XXSP,2013-03-28 21:04:00,
2013-03-28 14:05:00,58.3,51.4,30.03,NNW,337,0.0,3.6,78,0.00,,,0.02,WUHU21623XXSP,2013-03-28 21:05:00,
2013-03-28 14:07:00,58.6,51.8,30.03,WSW,247,3.1,4.0,78,0.00,,,0.02,WUHU21623XXSP,2013-03-28 21:07:00,
2013-03-28 14:09:00,58.8,51.6,30.03,NW,315,0.0,4.5,77,0.00,,,0.02,WUHU21623XXSP,2013-03-28 21:09:00,
2013-03-28 14:10:00,58.8,51.6,30.03,WSW,247,0.0,4.5,77,0.00,,,0.02,WUHU21623XXSP,2013-03-28 21:10:00,
2013-03-28 14:12:00,58.8,51.6,30.03,South,180,1.1,4.5,77,0.00,,,0.02,WUHU21623XXSP,2013-03-28 21:12:00,
2013-03-28 14:14:00,58.8,51.6,30.03,WSW,247,0.0,4.5,77,0.00,,,0.02,WUHU21623XXSP,2013-03-28 21:14:00,
2013-03-28 14:15:00,58.8,51.6,30.03,West,270,0.0,4.5,77,0.00,,,0.02,WUHU21623XXSP,2013-03-28 21:15:00,
2013-03-28 14:17:00,58.8,51.6,30.03,WNW,292,0.0,4.5,77,0.00,,,0.02,WUHU21623XXSP,2013-03-28 21:17:00,
2013-03-28 14:19:00,58.8,51.3,30.03,WSW,247,0.0,4.3,76,0.00,,,0.02,WUHU21623XXSP,2013-03-28 21:19:00,
2013-03-28 14:20:00,58.8,51.3,30.03,SW,225,2.7,4.3,76,0.00,,,0.02,WUHU21623XXSP,2013-03-28 21:20:00,
2013-03-28 14:22:00,58.8,51.3,30.03,West,270,0.0,4.3,76,0.00,,,0.02,WUHU21623XXSP,2013-03-28 21:22:00,
2013-03-28 14:24:00,58.8,51.3,30.03,NW,315,0.0,4.3,76,0.00,,,0.02,WUHU21623XXSP,2013-03-28 21:24:00,
2013-03-28 14:25:00,58.8,51.3,30.03,WNW,292,0.0,4.3,76,0.00,,,0.02,WUHU21623XXSP,2013-03-28 21:25:00,
2013-03-28 14:27:00,58.8,51.3,30.03,SSW,202,0.0,3.8,76,0.00,,,0.02,WUHU21623XXSP,2013-03-28 21:27:00,
2013-03-28 14:30:00,59.2,51.3,30.03,West,270,2.5,3.8,75,0.00,,,0.02,WUHU21623XXSP,2013-03-28 21:30:00,
2013-03-28 14:31:00,59.4,51.4,30.03,West,270,0.0,4.0,75,0.00,,,0.02,WUHU21623XXSP,2013-03-28 21:31:00,
2013-03-28 14:32:00,59.5,51.6,30.03,NW,315,2.2,4.0,75,0.00,,,0.02,WUHU21623XXSP,2013-03-28 21:32:00,
2013-03-28 14:35:00,59.5,51.6,30.03,West,270,0.0,4.0,75,0.00,,,0.02,WUHU21623XXSP,2013-03-28 21:35:00,
2013-03-28 14:36:00,59.5,51.6,30.03,NE,45,0.9,4.0,75,0.00,,,0.02,WUHU21623XXSP,2013-03-28 21:36:00,
2013-03-28 14:38:00,59.7,51.8,30.03,SSW,202,3.4,5.4,75,0.00,,,0.02,WUHU21623XXSP,2013-03-28 21:38:00,
2013-03-28 14:40:00,59.7,51.8,30.03,West,270,0.0,5.4,75,0.00,,,0.02,WUHU21623XXSP,2013-03-28 21:40:00,
2013-03-28 14:41:00,59.7,51.8,30.03,West,270,0.0,5.4,75,0.00,,,0.02,WUHU21623XXSP,2013-03-28 21:41:00,
2013-03-28 14:43:00,59.9,52.0,30.03,WNW,292,0.0,5.4,75,0.00,,,0.02,WUHU21623XXSP,2013-03-28 21:43:00,
2013-03-28 14:45:00,59.9,51.6,30.03,SSW,202,2.5,5.4,74,0.00,,,0.02,WUHU21623XXSP,2013-03-28 21:45:00,
2013-03-28 14:46:00,59.9,51.6,30.03,South,180,0.0,5.4,74,0.00,,,0.02,WUHU21623XXSP,2013-03-28 21:46:00,
2013-03-28 14:48:00,59.9,51.6,30.03,SW,225,0.0,2.5,74,0.00,,,0.02,WUHU21623XXSP,2013-03-28 21:48:00,
2013-03-28 14:50:00,59.9,51.6,30.03,SW,225,0.0,2.5,74,0.00,,,0.02,WUHU21623XXSP,2013-03-28 21:50:00,
2013-03-28 14:51:00,59.9,51.6,30.03,SW,225,0.0,2.5,74,0.00,,,0.02,WUHU21623XXSP,2013-03-28 21:51:00,
2013-03-28 14:53:00,60.1,52.2,30.03,West,270,0.0,2.5,75,0.00,,,0.02,WUHU21623XXSP,2013-03-28 21:53:00,
2013-03-28 14:55:00,60.1,52.2,30.03,SSW,202,0.0,2.2,75,0.00,,,0.02,WUHU21623XXSP,2013-03-28 21:55:00,
2013-03-28 14:56:00,60.1,52.2,30.03,West,270,0.0,2.2,75,0.00,,,0.02,WUHU21623XXSP,2013-03-28 21:56:00,
2013-03-28 14:57:00,60.1,51.8,30.03,WNW,292,0.0,0.0,74,0.00,,,0.02,WUHU21623XXSP,2013-03-28 21:57:00,
2013-03-28 14:59:00,60.1,51.8,30.03,SW,225,0.0,2.0,74,0.00,,,0.02,WUHU21623XXSP,2013-03-28 21:59:00,
2013-03-28 15:00:00,60.1,51.8,30.03,WNW,292,0.0,2.0,74,0.00,,,0.02,WUHU21623XXSP,2013-03-28 22:00:00,
2013-03-28 15:01:00,60.1,51.8,30.03,WNW,292,1.3,2.0,74,0.00,,,0.02,WUHU21623XXSP,2013-03-28 22:01:00,
2013-03-28 15:02:00,60.1,51.8,30.03,West,270,1.8,2.9,74,0.00,,,0.02,WUHU21623XXSP,2013-03-28 22:02:00,
2013-03-28 15:05:00,60.3,51.6,30.03,WSW,247,3.6,3.6,73,0.00,,,0.02,WUHU21623XXSP,2013-03-28 22:05:00,
2013-03-28 15:07:00,60.1,51.4,30.03,WSW,247,0.0,3.6,73,0.00,,,0.02,WUHU21623XXSP,2013-03-28 22:07:00,
2013-03-28 15:08:00,60.1,51.4,30.03,WSW,247,0.0,3.6,73,0.00,,,0.02,WUHU21623XXSP,2013-03-28 22:08:00,
2013-03-28 15:10:00,60.1,51.4,30.03,North,0,0.0,3.6,73,0.00,,,0.02,WUHU21623XXSP,2013-03-28 22:10:00,
2013-03-28 15:12:00,59.9,51.3,30.02,SW,225,0.0,4.7,73,0.00,,,0.02,WUHU21623XXSP,2013-03-28 22:12:00,
2013-03-28 15:13:00,59.9,51.3,30.02,WSW,247,1.6,4.7,73,0.00,,,0.02,WUHU21623XXSP,2013-03-28 22:13:00,
2013-03-28 15:15:00,59.7,51.1,30.03,SW,225,0.7,4.7,73,0.00,,,0.02,WUHU21623XXSP,2013-03-28 22:15:00,
2013-03-28 15:17:00,59.5,50.9,30.03,West,270,0.0,4.7,73,0.00,,,0.02,WUHU21623XXSP,2013-03-28 22:17:00,
2013-03-28 15:18:00,59.5,50.9,30.03,West,270,0.0,4.7,73,0.00,,,0.02,WUHU21623XXSP,2013-03-28 22:18:00,
2013-03-28 15:20:00,59.5,50.9,30.03,SW,225,1.6,4.7,73,0.00,,,0.02,WUHU21623XXSP,2013-03-28 22:20:00,
2013-03-28 15:23:00,59.4,50.7,30.03,NW,315,0.0,4.0,73,0.00,,,0.02,WUHU21623XXSP,2013-03-28 22:23:00,
2013-03-28 15:25:00,59.4,51.1,30.03,WNW,292,0.0,4.0,74,0.00,,,0.02,WUHU21623XXSP,2013-03-28 22:25:00,
2013-03-28 15:26:00,59.2,50.9,30.03,SW,225,0.0,4.0,74,0.00,,,0.02,WUHU21623XXSP,2013-03-28 22:26:00,
2013-03-28 15:28:00,59.2,50.9,30.03,WNW,292,0.0,4.0,74,0.00,,,0.02,WUHU21623XXSP,2013-03-28 22:28:00,
2013-03-28 15:30:00,59.4,51.1,30.03,WSW,247,2.9,4.0,74,0.00,,,0.02,WUHU21623XXSP,2013-03-28 22:30:00,
2013-03-28 15:31:00,59.4,51.1,30.03,SW,225,2.7,3.8,74,0.00,,,0.02,WUHU21623XXSP,2013-03-28 22:31:00,
2013-03-28 15:33:00,59.2,50.9,30.03,WSW,247,2.0,3.8,74,0.00,,,0.02,WUHU21623XXSP,2013-03-28 22:33:00,
2013-03-28 15:34:00,59.2,50.9,30.03,WSW,247,1.3,3.8,74,0.00,,,0.02,WUHU21623XXSP,2013-03-28 22:34:00,
2013-03-28 15:35:00,59.4,51.1,30.02,NW,315,0.0,3.8,74,0.00,,,0.02,WUHU21623XXSP,2013-03-28 22:35:00,
2013-03-28 15:37:00,59.2,50.9,30.03,WNW,292,0.0,3.8,74,0.00,,,0.02,WUHU21623XXSP,2013-03-28 22:37:00,
2013-03-28 15:38:00,59.2,50.9,30.03,WSW,247,1.6,3.8,74,0.00,,,0.02,WUHU21623XXSP,2013-03-28 22:38:00,
2013-03-28 15:39:00,59.2,50.9,30.03,SW,225,4.3,4.3,74,0.00,,,0.02,WUHU21623XXSP,2013-03-28 22:39:00,
2013-03-28 15:40:00,59.2,50.9,30.03,SW,225,1.6,6.5,74,0.00,,,0.02,WUHU21623XXSP,2013-03-28 22:40:00,
2013-03-28 15:42:00,59.2,50.9,30.03,WSW,247,1.3,6.5,74,0.00,,,0.02,WUHU21623XXSP,2013-03-28 22:42:00,
2013-03-28 15:43:00,59.2,50.9,30.03,NW,315,2.9,6.5,74,0.00,,,0.02,WUHU21623XXSP,2013-03-28 22:43:00,
2013-03-28 15:44:00,59.2,50.9,30.03,NW,315,1.3,6.5,74,0.00,,,0.02,WUHU21623XXSP,2013-03-28 22:44:00,
2013-03-28 15:45:00,59.4,51.1,30.03,WSW,247,2.5,6.5,74,0.00,,,0.02,WUHU21623XXSP,2013-03-28 22:45:00,
2013-03-28 15:48:00,59.2,50.9,30.03,West,270,1.8,6.5,74,0.00,,,0.02,WUHU21623XXSP,2013-03-28 22:48:00,
2013-03-28 15:49:00,59.2,50.9,30.03,NNW,337,0.0,6.5,74,0.00,,,0.02,WUHU21623XXSP,2013-03-28 22:49:00,
2013-03-28 15:50:00,59.4,51.1,30.03,WNW,292,6.0,6.0,74,0.00,,,0.02,WUHU21623XXSP,2013-03-28 22:50:00,
2013-03-28 15:53:00,59.2,50.9,30.03,WSW,247,2.5,6.9,74,0.00,,,0.02,WUHU21623XXSP,2013-03-28 22:53:00,
2013-03-28 15:54:00,59.0,50.7,30.03,WSW,247,6.0,6.9,74,0.00,,,0.02,WUHU21623XXSP,2013-03-28 22:54:00,
2013-03-28 15:57:00,58.8,50.5,30.03,SW,225,4.3,9.2,74,0.00,,,0.02,WUHU21623XXSP,2013-03-28 22:57:00,
2013-03-28 15:59:00,58.8,50.5,30.03,WNW,292,0.0,9.2,74,0.00,,,0.02,WUHU21623XXSP,2013-03-28 22:59:00,
2013-03-28 16:02:00,58.8,50.5,30.03,West,270,1.8,9.2,74,0.00,,,0.02,WUHU21623XXSP,2013-03-28 23:02:00,
2013-03-28 16:04:00,58.8,50.5,30.03,WNW,292,4.5,9.2,74,0.00,,,0.02,WUHU21623XXSP,2013-03-28 23:04:00,
2013-03-28 16:05:00,58.8,50.5,30.03,WNW,292,0.0,8.5,74,0.00,,,0.02,WUHU21623XXSP,2013-03-28 23:05:00,
2013-03-28 16:07:00,58.8,50.5,30.03,SSW,202,3.6,8.5,74,0.00,,,0.02,WUHU21623XXSP,2013-03-28 23:07:00,
2013-03-28 16:09:00,58.8,50.9,30.03,WSW,247,2.0,8.5,75,0.00,,,0.02,WUHU21623XXSP,2013-03-28 23:09:00,
2013-03-28 16:10:00,58.8,50.9,30.04,SSW,202,0.0,8.5,75,0.00,,,0.02,WUHU21623XXSP,2013-03-28 23:10:00,
2013-03-28 16:12:00,58.8,50.9,30.03,WSW,247,0.0,8.5,75,0.00,,,0.02,WUHU21623XXSP,2013-03-28 23:12:00,
2013-03-28 16:14:00,58.8,50.9,30.03,NW,315,0.0,6.9,75,0.00,,,0.02,WUHU21623XXSP,2013-03-28 23:14:00,
2013-03-28 16:15:00,58.8,50.9,30.03,West,270,0.0,6.9,75,0.00,,,0.02,WUHU21623XXSP,2013-03-28 23:15:00,
2013-03-28 16:17:00,58.8,50.9,30.03,SW,225,0.0,6.9,75,0.00,,,0.02,WUHU21623XXSP,2013-03-28 23:17:00,
2013-03-28 16:19:00,58.8,50.9,30.03,NW,315,0.9,6.9,75,0.00,,,0.02,WUHU21623XXSP,2013-03-28 23:19:00,
2013-03-28 16:20:00,58.8,50.9,30.03,NW,315,0.0,6.9,75,0.00,,,0.02,WUHU21623XXSP,2013-03-28 23:20:00,
2013-03-28 16:23:00,58.8,50.9,30.04,SW,225,1.1,6.9,75,0.00,,,0.02,WUHU21623XXSP,2013-03-28 23:23:00,
2013-03-28 16:24:00,58.8,50.9,30.03,WSW,247,0.0,6.9,75,0.00,,,0.02,WUHU21623XXSP,2013-03-28 23:24:00,
2013-03-28 16:25:00,58.8,50.9,30.03,WSW,247,2.9,6.9,75,0.00,,,0.02,WUHU21623XXSP,2013-03-28 23:25:00,
2013-03-28 16:28:00,58.8,50.9,30.03,West,270,2.9,4.9,75,0.00,,,0.02,WUHU21623XXSP,2013-03-28 23:28:00,
2013-03-28 16:30:00,58.8,50.9,30.04,WNW,292,0.0,4.9,75,0.00,,,0.02,WUHU21623XXSP,2013-03-28 23:30:00,
2013-03-28 16:33:00,58.8,50.9,30.04,WSW,247,4.3,4.7,75,0.00,,,0.02,WUHU21623XXSP,2013-03-28 23:33:00,
2013-03-28 16:35:00,58.8,50.9,30.03,SW,225,4.0,4.7,75,0.00,,,0.02,WUHU21623XXSP,2013-03-28 23:35:00,
2013-03-28 16:38:00,58.8,50.9,30.03,WSW,247,2.9,4.7,75,0.00,,,0.02,WUHU21623XXSP,2013-03-28 23:38:00,
2013-03-28 16:40:00,58.8,50.9,30.04,NW,315,0.0,4.9,75,0.00,,,0.02,WUHU21623XXSP,2013-03-28 23:40:00,
2013-03-28 16:43:00,58.8,50.9,30.04,NW,315,0.0,4.9,75,0.00,,,0.02,WUHU21623XXSP,2013-03-28 23:43:00,
2013-03-28 16:45:00,58.8,50.9,30.03,West,270,0.0,4.9,75,0.00,,,0.02,WUHU21623XXSP,2013-03-28 23:45:00,
2013-03-28 16:48:00,58.8,50.9,30.04,West,270,0.0,4.5,75,0.00,,,0.02,WUHU21623XXSP,2013-03-28 23:48:00,
2013-03-28 16:50:00,58.8,50.9,30.04,West,270,1.8,4.0,75,0.00,,,0.02,WUHU21623XXSP,2013-03-28 23:50:00,
2013-03-28 16:52:00,58.8,50.9,30.04,WSW,247,0.0,5.6,75,0.00,,,0.02,WUHU21623XXSP,2013-03-28 23:52:00,
2013-03-28 16:53:00,59.0,51.1,30.04,WSW,247,4.0,5.6,75,0.00,,,0.02,WUHU21623XXSP,2013-03-28 23:53:00,
2013-03-28 16:55:00,59.2,51.3,30.04,South,180,0.0,7.2,75,0.00,,,0.02,WUHU21623XXSP,2013-03-28 23:55:00,
2013-03-28 16:56:00,59.2,51.3,30.04,SW,225,3.1,7.2,75,0.00,,,0.02,WUHU21623XXSP,2013-03-28 23:56:00,
2013-03-28 16:57:00,59.2,51.3,30.04,WSW,247,2.9,7.2,75,0.00,,,0.02,WUHU21623XXSP,2013-03-28 23:57:00,
2013-03-28 16:58:00,59.2,51.3,30.04,WSW,247,3.4,7.2,75,0.00,,,0.02,WUHU21623XXSP,2013-03-28 23:58:00,
2013-03-28 17:00:00,59.4,51.4,30.04,SW,225,6.3,7.2,75,0.00,,,0.02,WUHU21623XXSP,2013-03-29 00:00:00,
2013-03-28 17:01:00,59.4,51.4,30.04,SSW,202,5.1,7.2,75,0.00,,,0.02,WUHU21623XXSP,2013-03-29 00:01:00,
2013-03-28 17:02:00,59.4,51.4,30.04,WSW,247,0.0,7.2,75,0.00,,,0.02,WUHU21623XXSP,2013-03-29 00:02:00,
2013-03-28 17:03:00,59.5,51.6,30.04,WSW,247,6.0,7.2,75,0.00,,,0.02,WUHU21623XXSP,2013-03-29 00:03:00,
2013-03-28 17:06:00,59.4,51.4,30.04,WSW,247,0.0,6.3,75,0.00,,,0.02,WUHU21623XXSP,2013-03-29 00:06:00,
2013-03-28 17:07:00,59.5,51.6,30.04,WSW,247,0.0,6.3,75,0.00,,,0.02,WUHU21623XXSP,2013-03-29 00:07:00,
2013-03-28 17:09:00,59.5,51.6,30.04,WSW,247,1.6,6.3,75,0.00,,,0.02,WUHU21623XXSP,2013-03-29 00:09:00,
2013-03-28 17:11:00,59.7,51.8,30.04,WSW,247,0.0,6.0,75,0.00,,,0.02,WUHU21623XXSP,2013-03-29 00:11:00,
2013-03-28 17:12:00,59.5,51.3,30.04,WSW,247,0.0,6.0,74,0.00,,,0.02,WUHU21623XXSP,2013-03-29 00:12:00,
2013-03-28 17:14:00,59.5,51.3,30.04,WSW,247,0.0,4.9,74,0.00,,,0.02,WUHU21623XXSP,2013-03-29 00:14:00,
2013-03-28 17:16:00,59.5,51.3,30.04,WSW,247,3.4,4.9,74,0.00,,,0.02,WUHU21623XXSP,2013-03-29 00:16:00,
2013-03-28 17:17:00,59.7,51.8,30.04,WSW,247,5.1,5.6,75,0.00,,,0.02,WUHU21623XXSP,2013-03-29 00:17:00,
2013-03-28 17:19:00,59.7,51.8,30.04,WSW,247,2.9,5.6,75,0.00,,,0.02,WUHU21623XXSP,2013-03-29 00:19:00,
2013-03-28 17:22:00,59.7,51.4,30.04,SSW,202,2.7,5.6,74,0.00,,,0.02,WUHU21623XXSP,2013-03-29 00:22:00,
2013-03-28 17:24:00,59.7,51.4,30.04,WSW,247,0.0,5.6,74,0.00,,,0.02,WUHU21623XXSP,2013-03-29 00:24:00,
2013-03-28 17:27:00,59.5,51.3,30.05,WSW,247,0.0,4.3,74,0.00,,,0.02,WUHU21623XXSP,2013-03-29 00:27:00,
2013-03-28 17:28:00,59.5,50.9,30.04,West,270,0.0,4.3,73,0.00,,,0.02,WUHU21623XXSP,2013-03-29 00:28:00,
2013-03-28 17:29:00,59.5,50.9,30.05,WSW,247,0.0,4.3,73,0.00,,,0.02,WUHU21623XXSP,2013-03-29 00:29:00,
2013-03-28 17:32:00,59.2,50.5,30.04,NW,315,0.0,4.3,73,0.00,,,0.02,WUHU21623XXSP,2013-03-29 00:32:00,
2013-03-28 17:33:00,58.8,50.2,30.04,NW,315,0.0,4.3,73,0.00,,,0.02,WUHU21623XXSP,2013-03-29 00:33:00,
2013-03-28 17:34:00,59.0,50.4,30.04,SW,225,0.0,4.3,73,0.00,,,0.02,WUHU21623XXSP,2013-03-29 00:34:00,
2013-03-28 17:37:00,58.8,50.5,30.04,WSW,247,4.3,4.3,74,0.00,,,0.02,WUHU21623XXSP,2013-03-29 00:37:00,
2013-03-28 17:38:00,58.8,50.5,30.04,WSW,247,3.1,4.3,74,0.00,,,0.02,WUHU21623XXSP,2013-03-29 00:38:00,
2013-03-28 17:39:00,58.8,50.5,30.04,WSW,247,2.2,4.3,74,0.00,,,0.02,WUHU21623XXSP,2013-03-29 00:39:00,
2013-03-28 17:42:00,58.8,50.5,30.04,WSW,247,1.8,4.7,74,0.00,,,0.02,WUHU21623XXSP,2013-03-29 00:42:00,
2013-03-28 17:44:00,58.8,50.5,30.04,WSW,247,2.2,4.7,74,0.00,,,0.02,WUHU21623XXSP,2013-03-29 00:44:00,
2013-03-28 17:48:00,58.8,50.5,30.04,WSW,247,0.0,4.7,74,0.00,,,0.02,WUHU21623XXSP,2013-03-29 00:48:00,
2013-03-28 17:49:00,58.8,50.5,30.04,WSW,247,1.1,4.7,74,0.00,,,0.02,WUHU21623XXSP,2013-03-29 00:49:00,
2013-03-28 17:53:00,58.8,50.5,30.04,WSW,247,0.0,4.5,74,0.00,,,0.02,WUHU21623XXSP,2013-03-29 00:53:00,
2013-03-28 17:54:00,58.8,50.5,30.04,WSW,247,2.0,4.5,74,0.00,,,0.02,WUHU21623XXSP,2013-03-29 00:54:00,
2013-03-28 17:55:00,58.8,50.5,30.04,WSW,247,0.7,4.5,74,0.00,,,0.02,WUHU21623XXSP,2013-03-29 00:55:00,
2013-03-28 17:58:00,58.8,50.9,30.05,WSW,247,3.4,4.9,75,0.00,,,0.02,WUHU21623XXSP,2013-03-29 00:58:00,
2013-03-28 17:59:00,58.8,50.9,30.04,WSW,247,4.9,4.9,75,0.00,,,0.02,WUHU21623XXSP,2013-03-29 00:59:00,
2013-03-28 18:00:00,58.8,50.9,30.04,WSW,247,0.0,4.9,75,0.00,,,0.02,WUHU21623XXSP,2013-03-29 01:00:00,
2013-03-28 18:03:00,58.6,50.4,30.04,WSW,247,0.0,4.9,74,0.00,,,0.02,WUHU21623XXSP,2013-03-29 01:03:00,
2013-03-28 18:04:00,58.5,50.2,30.05,WSW,247,2.7,4.9,74,0.00,,,0.02,WUHU21623XXSP,2013-03-29 01:04:00,
2013-03-28 18:05:00,58.3,50.0,30.05,West,270,0.0,4.9,74,0.00,,,0.02,WUHU21623XXSP,2013-03-29 01:05:00,
2013-03-28 18:08:00,58.3,50.0,30.04,WSW,247,2.9,4.9,74,0.00,,,0.02,WUHU21623XXSP,2013-03-29 01:08:00,
2013-03-28 18:09:00,58.1,49.8,30.05,WSW,247,1.1,3.8,74,0.00,,,0.02,WUHU21623XXSP,2013-03-29 01:09:00,
2013-03-28 18:10:00,58.1,49.8,30.05,WSW,247,1.1,3.8,74,0.00,,,0.02,WUHU21623XXSP,2013-03-29 01:10:00,
2013-03-28 18:14:00,57.9,49.6,30.05,SW,225,1.1,3.8,74,0.00,,,0.02,WUHU21623XXSP,2013-03-29 01:14:00,
2013-03-28 18:15:00,57.7,49.8,30.05,NW,315,0.0,3.8,75,0.00,,,0.02,WUHU21623XXSP,2013-03-29 01:15:00,
2013-03-28 18:19:00,57.4,49.5,30.05,SSW,202,1.6,4.0,75,0.00,,,0.02,WUHU21623XXSP,2013-03-29 01:19:00,
2013-03-28 18:20:00,57.4,49.5,30.05,WSW,247,2.0,4.0,75,0.00,,,0.02,WUHU21623XXSP,2013-03-29 01:20:00,
2013-03-28 18:24:00,57.0,49.5,30.05,West,270,0.0,4.0,76,0.00,,,0.02,WUHU21623XXSP,2013-03-29 01:24:00,
2013-03-28 18:25:00,57.0,49.5,30.05,North,0,0.0,4.0,76,0.00,,,0.02,WUHU21623XXSP,2013-03-29 01:25:00,
2013-03-28 18:29:00,56.8,49.3,30.05,West,270,0.0,3.6,76,0.00,,,0.02,WUHU21623XXSP,2013-03-29 01:29:00,
2013-03-28 18:30:00,56.8,49.3,30.05,WSW,247,0.0,3.6,76,0.00,,,0.02,WUHU21623XXSP,2013-03-29 01:30:00,
2013-03-28 18:31:00,56.8,49.3,30.05,WSW,247,0.0,3.6,76,0.00,,,0.02,WUHU21623XXSP,2013-03-29 01:31:00,
2013-03-28 18:34:00,56.5,49.1,30.05,SSW,202,0.0,2.9,76,0.00,,,0.02,WUHU21623XXSP,2013-03-29 01:34:00,
2013-03-28 18:35:00,56.5,48.9,30.05,SSW,202,0.0,2.9,76,0.00,,,0.02,WUHU21623XXSP,2013-03-29 01:35:00,
2013-03-28 18:36:00,56.5,49.3,30.05,SW,225,2.5,2.9,77,0.00,,,0.02,WUHU21623XXSP,2013-03-29 01:36:00,
2013-03-28 18:39:00,56.5,49.3,30.05,West,270,0.0,2.5,77,0.00,,,0.02,WUHU21623XXSP,2013-03-29 01:39:00,
2013-03-28 18:40:00,56.5,49.3,30.05,West,270,0.0,2.5,77,0.00,,,0.02,WUHU21623XXSP,2013-03-29 01:40:00,
2013-03-28 18:42:00,56.3,49.1,30.05,WNW,292,0.0,2.5,77,0.00,,,0.02,WUHU21623XXSP,2013-03-29 01:42:00,
2013-03-28 18:44:00,56.3,49.1,30.05,West,270,0.0,2.5,77,0.00,,,0.02,WUHU21623XXSP,2013-03-29 01:44:00,
2013-03-28 18:45:00,56.3,49.1,30.05,West,270,0.0,2.5,77,0.00,,,0.02,WUHU21623XXSP,2013-03-29 01:45:00,
2013-03-28 18:47:00,56.1,48.9,30.05,WNW,292,0.0,2.0,77,0.00,,,0.02,WUHU21623XXSP,2013-03-29 01:47:00,
2013-03-28 18:50:00,56.1,48.9,30.05,West,270,0.0,2.0,77,0.00,,,0.02,WUHU21623XXSP,2013-03-29 01:50:00,
2013-03-28 18:51:00,56.1,48.9,30.05,West,270,0.0,0.0,77,0.00,,,0.02,WUHU21623XXSP,2013-03-29 01:51:00,
2013-03-28 18:52:00,56.1,49.3,30.06,WNW,292,0.0,0.0,78,0.00,,,0.02,WUHU21623XXSP,2013-03-29 01:52:00,
2013-03-28 18:55:00,55.9,49.1,30.06,WSW,247,3.6,3.6,78,0.00,,,0.02,WUHU21623XXSP,2013-03-29 01:55:00,
2013-03-28 18:56:00,55.9,49.1,30.06,SW,225,0.0,3.6,78,0.00,,,0.02,WUHU21623XXSP,2013-03-29 01:56:00,
2013-03-28 18:57:00,55.8,48.9,30.06,West,270,0.0,3.6,78,0.00,,,0.02,WUHU21623XXSP,2013-03-29 01:57:00,
2013-03-28 19:00:00,55.8,48.6,30.06,WSW,247,0.0,3.6,77,0.00,,,0.02,WUHU21623XXSP,2013-03-29 02:00:00,
2013-03-28 19:02:00,55.6,48.4,30.06,WSW,247,1.3,3.6,77,0.00,,,0.02,WUHU21623XXSP,2013-03-29 02:02:00,
2013-03-28 19:05:00,55.4,48.3,30.06,SSW,202,0.0,2.7,77,0.00,,,0.02,WUHU21623XXSP,2013-03-29 02:05:00,
2013-03-28 19:07:00,55.2,48.4,30.06,WSW,247,0.0,1.3,78,0.00,,,0.02,WUHU21623XXSP,2013-03-29 02:07:00,
2013-03-28 19:08:00,55.2,48.4,30.06,WNW,292,0.0,1.3,78,0.00,,,0.02,WUHU21623XXSP,2013-03-29 02:08:00,
2013-03-28 19:10:00,55.0,48.3,30.06,WNW,292,0.0,1.3,78,0.00,,,0.02,WUHU21623XXSP,2013-03-29 02:10:00,
2013-03-28 19:12:00,55.0,48.3,30.06,West,270,0.0,0.0,78,0.00,,,0.02,WUHU21623XXSP,2013-03-29 02:12:00,
2013-03-28 19:13:00,54.9,48.1,30.06,WSW,247,0.0,2.7,78,0.00,,,0.02,WUHU21623XXSP,2013-03-29 02:13:00,
2013-03-28 19:15:00,54.7,47.9,30.06,NW,315,2.2,3.6,78,0.00,,,0.02,WUHU21623XXSP,2013-03-29 02:15:00,
2013-03-28 19:17:00,54.5,48.1,30.06,WNW,292,0.0,3.6,79,0.00,,,0.02,WUHU21623XXSP,2013-03-29 02:17:00,
2013-03-28 19:18:00,54.5,48.1,30.06,WNW,292,0.0,3.6,79,0.00,,,0.02,WUHU21623XXSP,2013-03-29 02:18:00,
2013-03-28 19:20:00,54.3,47.9,30.06,NW,315,0.0,3.6,79,0.00,,,0.02,WUHU21623XXSP,2013-03-29 02:20:00,
2013-03-28 19:23:00,54.3,47.9,30.06,WSW,247,0.0,3.6,79,0.00,,,0.02,WUHU21623XXSP,2013-03-29 02:23:00,
2013-03-28 19:25:00,54.1,47.8,30.06,SW,225,0.0,2.9,79,0.00,,,0.02,WUHU21623XXSP,2013-03-29 02:25:00,
2013-03-28 19:28:00,54.0,47.6,30.06,SW,225,0.0,2.0,79,0.00,,,0.02,WUHU21623XXSP,2013-03-29 02:28:00,
2013-03-28 19:30:00,53.8,47.8,30.06,WSW,247,0.0,1.8,80,0.00,,,0.02,WUHU21623XXSP,2013-03-29 02:30:00,
2013-03-28 19:33:00,53.4,47.5,30.06,SW,225,0.0,2.0,80,0.00,,,0.02,WUHU21623XXSP,2013-03-29 02:33:00,
2013-03-28 19:34:00,53.4,47.5,30.06,WNW,292,0.0,2.0,80,0.00,,,0.02,WUHU21623XXSP,2013-03-29 02:34:00,
2013-03-28 19:35:00,53.4,47.5,30.06,SSW,202,0.0,2.0,80,0.00,,,0.02,WUHU21623XXSP,2013-03-29 02:35:00,
2013-03-28 19:36:00,53.4,47.5,30.06,SSW,202,0.0,2.0,80,0.00,,,0.02,WUHU21623XXSP,2013-03-29 02:36:00,
2013-03-28 19:38:00,53.2,47.3,30.06,West,270,0.0,2.0,80,0.00,,,0.02,WUHU21623XXSP,2013-03-29 02:38:00,
2013-03-28 19:39:00,53.2,47.3,30.06,West,270,0.0,2.0,80,0.00,,,0.02,WUHU21623XXSP,2013-03-29 02:39:00,
2013-03-28 19:40:00,53.2,47.3,30.06,WNW,292,0.0,2.0,80,0.00,,,0.02,WUHU21623XXSP,2013-03-29 02:40:00,
2013-03-28 19:41:00,53.2,47.3,30.06,WNW,292,0.0,2.0,80,0.00,,,0.02,WUHU21623XXSP,2013-03-29 02:41:00,
2013-03-28 19:43:00,53.2,47.3,30.06,SSW,202,0.0,2.0,80,0.00,,,0.02,WUHU21623XXSP,2013-03-29 02:43:00,
2013-03-28 19:44:00,53.1,47.1,30.06,West,270,0.0,2.0,80,0.00,,,0.02,WUHU21623XXSP,2013-03-29 02:44:00,
2013-03-28 19:45:00,52.9,46.9,30.06,West,270,0.0,2.0,80,0.00,,,0.02,WUHU21623XXSP,2013-03-29 02:45:00,
2013-03-28 19:48:00,52.9,47.2,30.06,NW,315,2.7,2.7,81,0.00,,,0.02,WUHU21623XXSP,2013-03-29 02:48:00,
2013-03-28 19:49:00,52.9,47.2,30.06,NW,315,0.0,2.7,81,0.00,,,0.02,WUHU21623XXSP,2013-03-29 02:49:00,
2013-03-28 19:51:00,52.9,47.2,30.06,NW,315,0.0,2.7,81,0.00,,,0.02,WUHU21623XXSP,2013-03-29 02:51:00,
2013-03-28 19:53:00,52.9,47.2,30.06,NW,315,0.0,2.7,81,0.00,,,0.02,WUHU21623XXSP,2013-03-29 02:53:00,
2013-03-28 19:54:00,52.7,47.1,30.06,WSW,247,2.5,2.7,81,0.00,,,0.02,WUHU21623XXSP,2013-03-29 02:54:00,
2013-03-28 19:56:00,52.7,47.1,30.06,WSW,247,0.0,2.7,81,0.00,,,0.02,WUHU21623XXSP,2013-03-29 02:56:00,
2013-03-28 19:57:00,52.7,47.1,30.06,WSW,247,0.0,2.7,81,0.00,,,0.02,WUHU21623XXSP,2013-03-29 02:57:00,
2013-03-28 19:58:00,52.5,46.9,30.06,WSW,247,2.5,2.5,81,0.00,,,0.02,WUHU21623XXSP,2013-03-29 02:58:00,
2013-03-28 19:59:00,52.5,46.9,30.06,West,270,0.0,2.5,81,0.00,,,0.02,WUHU21623XXSP,2013-03-29 02:59:00,
2013-03-28 20:01:00,52.5,46.9,30.06,SW,225,0.0,2.5,81,0.00,,,0.02,WUHU21623XXSP,2013-03-29 03:01:00,
2013-03-28 20:02:00,52.3,47.0,30.06,WSW,247,0.0,2.5,82,0.00,,,0.02,WUHU21623XXSP,2013-03-29 03:02:00,
2013-03-28 20:03:00,52.3,47.0,30.06,WSW,247,0.0,2.5,82,0.00,,,0.02,WUHU21623XXSP,2013-03-29 03:03:00,
2013-03-28 20:04:00,52.3,47.0,30.06,WSW,247,0.0,2.5,82,0.00,,,0.02,WUHU21623XXSP,2013-03-29 03:04:00,
2013-03-28 20:06:00,52.3,47.0,30.06,WSW,247,0.0,2.5,82,0.00,,,0.02,WUHU21623XXSP,2013-03-29 03:06:00,
2013-03-28 20:08:00,52.3,47.0,30.06,WSW,247,0.0,2.5,82,0.00,,,0.02,WUHU21623XXSP,2013-03-29 03:08:00,
2013-03-28 20:09:00,52.2,46.8,30.06,WSW,247,0.0,0.7,82,0.00,,,0.02,WUHU21623XXSP,2013-03-29 03:09:00,
2013-03-28 20:11:00,52.2,46.8,30.06,WSW,247,0.0,0.0,82,0.00,,,0.02,WUHU21623XXSP,2013-03-29 03:11:00,
2013-03-28 20:13:00,52.2,46.8,30.06,WSW,247,0.0,0.0,82,0.00,,,0.02,WUHU21623XXSP,2013-03-29 03:13:00,
2013-03-28 20:14:00,52.2,46.8,30.06,South,180,0.0,0.0,82,0.00,,,0.02,WUHU21623XXSP,2013-03-29 03:14:00,
2013-03-28 20:16:00,52.2,47.1,30.06,WSW,247,1.8,1.8,83,0.00,,,0.02,WUHU21623XXSP,2013-03-29 03:16:00,
2013-03-28 20:18:00,52.2,47.1,30.06,SSW,202,0.0,1.8,83,0.00,,,0.02,WUHU21623XXSP,2013-03-29 03:18:00,
2013-03-28 20:19:00,52.0,47.0,30.06,SSW,202,0.0,1.8,83,0.00,,,0.02,WUHU21623XXSP,2013-03-29 03:19:00,
2013-03-28 20:20:00,52.0,47.0,30.07,SSW,202,0.0,1.8,83,0.00,,,0.02,WUHU21623XXSP,2013-03-29 03:20:00,
2013-03-28 20:21:00,52.0,47.0,30.06,SSW,202,0.0,1.8,83,0.00,,,0.02,WUHU21623XXSP,2013-03-29 03:21:00,
2013-03-28 20:23:00,52.0,47.0,30.07,SSW,202,0.0,1.8,83,0.00,,,0.02,WUHU21623XXSP,2013-03-29 03:23:00,
2013-03-28 20:24:00,52.0,47.0,30.07,SSW,202,0.0,1.8,83,0.00,,,0.02,WUHU21623XXSP,2013-03-29 03:24:00,
2013-03-28 20:25:00,52.0,47.0,30.07,SSW,202,0.0,1.8,83,0.00,,,0.02,WUHU21623XXSP,2013-03-29 03:25:00,
2013-03-28 20:27:00,52.0,47.0,30.07,SSW,202,0.0,0.0,83,0.00,,,0.02,WUHU21623XXSP,2013-03-29 03:27:00,
2013-03-28 20:28:00,52.0,47.0,30.07,WNW,292,0.0,0.0,83,0.00,,,0.02,WUHU21623XXSP,2013-03-29 03:28:00,
2013-03-28 20:29:00,52.0,47.0,30.07,WNW,292,0.0,0.0,83,0.00,,,0.02,WUHU21623XXSP,2013-03-29 03:29:00,
2013-03-28 20:30:00,52.0,47.0,30.07,WNW,292,0.0,0.0,83,0.00,,,0.02,WUHU21623XXSP,2013-03-29 03:30:00,
2013-03-28 20:32:00,52.0,47.0,30.07,WNW,292,0.0,0.0,83,0.00,,,0.02,WUHU21623XXSP,2013-03-29 03:32:00,
2013-03-28 20:33:00,52.0,47.0,30.07,WNW,292,0.0,0.0,83,0.00,,,0.02,WUHU21623XXSP,2013-03-29 03:33:00,
2013-03-28 20:34:00,52.0,47.0,30.07,WNW,292,0.0,0.0,83,0.00,,,0.02,WUHU21623XXSP,2013-03-29 03:34:00,
2013-03-28 20:35:00,52.0,47.0,30.07,WSW,247,0.0,0.0,83,0.00,,,0.02,WUHU21623XXSP,2013-03-29 03:35:00,
2013-03-28 20:37:00,52.0,47.0,30.07,NW,315,0.0,0.0,83,0.00,,,0.02,WUHU21623XXSP,2013-03-29 03:37:00,
2013-03-28 20:38:00,52.0,47.0,30.07,NW,315,0.0,0.0,83,0.00,,,0.02,WUHU21623XXSP,2013-03-29 03:38:00,
2013-03-28 20:39:00,52.0,47.0,30.07,NW,315,0.0,0.0,83,0.00,,,0.02,WUHU21623XXSP,2013-03-29 03:39:00,
2013-03-28 20:40:00,52.0,47.0,30.07,NW,315,0.0,0.0,83,0.00,,,0.02,WUHU21623XXSP,2013-03-29 03:40:00,
2013-03-28 20:42:00,52.0,47.0,30.07,West,270,0.0,1.1,83,0.00,,,0.02,WUHU21623XXSP,2013-03-29 03:42:00,
2013-03-28 20:43:00,52.0,46.8,30.07,SW,225,0.0,1.1,83,0.00,,,0.02,WUHU21623XXSP,2013-03-29 03:43:00,
2013-03-28 20:45:00,52.0,47.3,30.07,West,270,0.0,1.1,84,0.00,,,0.02,WUHU21623XXSP,2013-03-29 03:45:00,
2013-03-28 20:47:00,51.8,47.1,30.07,WSW,247,0.0,2.2,84,0.00,,,0.02,WUHU21623XXSP,2013-03-29 03:47:00,
2013-03-28 20:49:00,51.8,47.3,30.07,WSW,247,0.0,2.2,84,0.00,,,0.02,WUHU21623XXSP,2013-03-29 03:49:00,
2013-03-28 20:50:00,51.8,47.1,30.07,WSW,247,0.0,2.2,84,0.00,,,0.02,WUHU21623XXSP,2013-03-29 03:50:00,
2013-03-28 20:52:00,51.8,47.1,30.07,WSW,247,0.0,2.2,84,0.00,,,0.02,WUHU21623XXSP,2013-03-29 03:52:00,
2013-03-28 20:54:00,51.8,47.1,30.07,WSW,247,0.0,2.2,84,0.00,,,0.02,WUHU21623XXSP,2013-03-29 03:54:00,
2013-03-28 20:55:00,51.8,47.1,30.07,WSW,247,0.0,0.0,84,0.00,,,0.02,WUHU21623XXSP,2013-03-29 03:55:00,
2013-03-28 20:57:00,51.8,47.1,30.07,WSW,247,0.0,0.0,84,0.00,,,0.02,WUHU21623XXSP,2013-03-29 03:57:00,
2013-03-28 20:59:00,51.8,47.1,30.07,WSW,247,0.0,0.0,84,0.00,,,0.02,WUHU21623XXSP,2013-03-29 03:59:00,
2013-03-28 21:00:00,51.6,46.9,30.08,WSW,247,0.0,0.0,84,0.00,,,0.02,WUHU21623XXSP,2013-03-29 04:00:00,
2013-03-28 21:05:00,51.6,46.9,30.07,WSW,247,0.0,0.0,84,0.00,,,0.02,WUHU21623XXSP,2013-03-29 04:05:00,
2013-03-28 21:10:00,51.6,46.9,30.08,WSW,247,0.0,0.0,84,0.00,,,0.02,WUHU21623XXSP,2013-03-29 04:10:00,
2013-03-28 21:11:00,51.6,46.9,30.08,SW,225,0.0,0.0,84,0.00,,,0.02,WUHU21623XXSP,2013-03-29 04:11:00,
2013-03-28 21:15:00,51.6,46.9,30.08,SW,225,0.0,0.0,84,0.00,,,0.02,WUHU21623XXSP,2013-03-29 04:15:00,
2013-03-28 21:16:00,51.6,46.9,30.08,SW,225,0.0,0.0,84,0.00,,,0.02,WUHU21623XXSP,2013-03-29 04:16:00,
2013-03-28 21:20:00,51.6,46.9,30.08,NE,45,0.0,0.0,84,0.00,,,0.02,WUHU21623XXSP,2013-03-29 04:20:00,
2013-03-28 21:22:00,51.6,46.9,30.08,NE,45,0.0,0.0,84,0.00,,,0.02,WUHU21623XXSP,2013-03-29 04:22:00,
2013-03-28 21:25:00,51.6,46.9,30.08,NE,45,0.0,0.0,84,0.00,,,0.02,WUHU21623XXSP,2013-03-29 04:25:00,
2013-03-28 21:27:00,51.6,46.9,30.08,NNE,22,0.2,0.2,84,0.00,,,0.02,WUHU21623XXSP,2013-03-29 04:27:00,
2013-03-28 21:30:00,51.6,46.9,30.08,NNE,22,0.0,0.2,84,0.00,,,0.02,WUHU21623XXSP,2013-03-29 04:30:00,
2013-03-28 21:32:00,51.6,46.9,30.08,ESE,112,0.0,0.2,84,0.00,,,0.02,WUHU21623XXSP,2013-03-29 04:32:00,
2013-03-28 21:35:00,51.6,46.9,30.08,ESE,112,0.0,0.2,84,0.00,,,0.02,WUHU21623XXSP,2013-03-29 04:35:00,
2013-03-28 21:36:00,51.6,46.9,30.08,ESE,112,0.0,0.2,84,0.00,,,0.02,WUHU21623XXSP,2013-03-29 04:36:00,
2013-03-28 21:37:00,51.6,46.9,30.08,ESE,112,0.0,0.0,84,0.00,,,0.02,WUHU21623XXSP,2013-03-29 04:37:00,
2013-03-28 21:40:00,51.6,46.9,30.08,ESE,112,0.0,0.0,84,0.00,,,0.02,WUHU21623XXSP,2013-03-29 04:40:00,
2013-03-28 21:41:00,51.6,46.9,30.08,ESE,112,0.0,0.0,84,0.00,,,0.02,WUHU21623XXSP,2013-03-29 04:41:00,
2013-03-28 21:43:00,51.6,46.9,30.08,ESE,112,0.0,0.0,84,0.00,,,0.02,WUHU21623XXSP,2013-03-29 04:43:00,
2013-03-28 21:45:00,51.6,46.9,30.08,ENE,67,0.0,1.1,84,0.00,,,0.02,WUHU21623XXSP,2013-03-29 04:45:00,
2013-03-28 21:46:00,51.6,46.9,30.08,ENE,67,0.0,1.1,84,0.00,,,0.02,WUHU21623XXSP,2013-03-29 04:46:00,
2013-03-28 21:48:00,51.6,46.9,30.08,ENE,67,0.0,1.1,84,0.00,,,0.02,WUHU21623XXSP,2013-03-29 04:48:00,
2013-03-28 21:51:00,51.6,47.2,30.09,NNE,22,0.0,1.1,85,0.00,,,0.02,WUHU21623XXSP,2013-03-29 04:51:00,
2013-03-28 21:52:00,51.6,47.2,30.09,NNE,22,0.0,1.1,85,0.00,,,0.02,WUHU21623XXSP,2013-03-29 04:52:00,
2013-03-28 21:53:00,51.6,47.2,30.09,NNE,22,0.0,1.1,85,0.00,,,0.02,WUHU21623XXSP,2013-03-29 04:53:00,
2013-03-28 21:57:00,51.6,47.2,30.09,NNE,22,0.0,0.0,85,0.00,,,0.02,WUHU21623XXSP,2013-03-29 04:57:00,
2013-03-28 21:58:00,51.6,47.2,30.09,NE,45,0.0,0.0,85,0.00,,,0.02,WUHU21623XXSP,2013-03-29 04:58:00,
2013-03-28 22:02:00,51.6,47.2,30.09,NE,45,0.0,0.0,85,0.00,,,0.02,WUHU21623XXSP,2013-03-29 05:02:00,
2013-03-28 22:03:00,51.6,47.2,30.09,NE,45,0.0,0.0,85,0.00,,,0.02,WUHU21623XXSP,2013-03-29 05:03:00,
2013-03-28 22:07:00,51.6,47.2,30.09,NE,45,0.0,0.0,85,0.00,,,0.02,WUHU21623XXSP,2013-03-29 05:07:00,
2013-03-28 22:08:00,51.6,47.2,30.09,NE,45,0.0,0.0,85,0.00,,,0.02,WUHU21623XXSP,2013-03-29 05:08:00,
2013-03-28 22:12:00,51.6,47.2,30.09,NE,45,0.0,0.0,85,0.00,,,0.02,WUHU21623XXSP,2013-03-29 05:12:00,
2013-03-28 22:13:00,51.6,47.2,30.09,NE,45,0.0,0.0,85,0.00,,,0.02,WUHU21623XXSP,2013-03-29 05:13:00,
2013-03-28 22:17:00,51.6,47.2,30.09,NE,45,0.0,0.0,85,0.00,,,0.02,WUHU21623XXSP,2013-03-29 05:17:00,
2013-03-28 22:18:00,51.6,47.2,30.09,NE,45,0.0,0.0,85,0.00,,,0.02,WUHU21623XXSP,2013-03-29 05:18:00,
2013-03-28 22:19:00,51.6,47.2,30.09,NE,45,0.0,0.0,85,0.00,,,0.02,WUHU21623XXSP,2013-03-29 05:19:00,
2013-03-28 22:22:00,51.4,47.0,30.09,NE,45,0.0,0.0,85,0.00,,,0.02,WUHU21623XXSP,2013-03-29 05:22:00,
2013-03-28 22:23:00,51.4,47.0,30.09,NE,45,0.0,0.0,85,0.00,,,0.02,WUHU21623XXSP,2013-03-29 05:23:00,
2013-03-28 22:25:00,51.4,47.0,30.09,NE,45,0.0,0.0,85,0.00,,,0.02,WUHU21623XXSP,2013-03-29 05:25:00,
2013-03-28 22:27:00,51.4,47.0,30.09,NE,45,0.0,0.0,85,0.00,,,0.02,WUHU21623XXSP,2013-03-29 05:27:00,
2013-03-28 22:28:00,51.4,47.0,30.09,NE,45,0.0,0.0,85,0.00,,,0.02,WUHU21623XXSP,2013-03-29 05:28:00,
2013-03-28 22:30:00,51.4,47.0,30.09,NE,45,0.0,0.0,85,0.00,,,0.02,WUHU21623XXSP,2013-03-29 05:30:00,
2013-03-28 22:32:00,51.4,47.0,30.09,NE,45,0.0,0.0,85,0.00,,,0.02,WUHU21623XXSP,2013-03-29 05:32:00,
2013-03-28 22:33:00,51.4,47.0,30.09,NE,45,0.0,0.0,85,0.00,,,0.02,WUHU21623XXSP,2013-03-29 05:33:00,
2013-03-28 22:35:00,51.4,47.0,30.09,NE,45,0.0,0.0,85,0.00,,,0.02,WUHU21623XXSP,2013-03-29 05:35:00,
2013-03-28 22:38:00,51.4,47.0,30.09,NE,45,0.0,0.0,85,0.00,,,0.02,WUHU21623XXSP,2013-03-29 05:38:00,
2013-03-28 22:40:00,51.4,47.0,30.09,NE,45,0.0,0.0,85,0.00,,,0.02,WUHU21623XXSP,2013-03-29 05:40:00,
2013-03-28 22:43:00,51.4,47.0,30.09,NE,45,0.0,0.0,85,0.00,,,0.02,WUHU21623XXSP,2013-03-29 05:43:00,
2013-03-28 22:45:00,51.4,47.0,30.09,NE,45,0.0,0.0,85,0.00,,,0.02,WUHU21623XXSP,2013-03-29 05:45:00,
2013-03-28 22:48:00,51.4,47.0,30.09,NE,45,0.0,0.0,85,0.00,,,0.02,WUHU21623XXSP,2013-03-29 05:48:00,
2013-03-28 22:49:00,51.4,47.0,30.09,NE,45,0.0,0.0,85,0.00,,,0.02,WUHU21623XXSP,2013-03-29 05:49:00,
2013-03-28 22:50:00,51.4,47.0,30.10,NE,45,0.0,0.0,85,0.00,,,0.02,WUHU21623XXSP,2013-03-29 05:50:00,
2013-03-28 22:53:00,51.4,47.0,30.10,NE,45,0.0,0.0,85,0.00,,,0.02,WUHU21623XXSP,2013-03-29 05:53:00,
2013-03-28 22:54:00,51.4,47.0,30.10,NE,45,0.0,0.0,85,0.00,,,0.02,WUHU21623XXSP,2013-03-29 05:54:00,
2013-03-28 22:55:00,51.3,46.9,30.10,NE,45,0.0,0.0,85,0.00,,,0.02,WUHU21623XXSP,2013-03-29 05:55:00,
2013-03-28 22:58:00,51.3,46.9,30.10,NE,45,0.0,0.0,85,0.00,,,0.02,WUHU21623XXSP,2013-03-29 05:58:00,
2013-03-28 22:59:00,51.3,46.9,30.10,NE,45,0.0,0.0,85,0.00,,,0.02,WUHU21623XXSP,2013-03-29 05:59:00,
2013-03-28 23:01:00,51.3,46.9,30.10,NE,45,0.0,0.0,85,0.00,,,0.02,WUHU21623XXSP,2013-03-29 06:01:00,
2013-03-28 23:03:00,51.1,46.7,30.10,NE,45,0.0,0.0,85,0.00,,,0.02,WUHU21623XXSP,2013-03-29 06:03:00,
2013-03-28 23:04:00,51.1,46.7,30.10,NE,45,0.0,0.0,85,0.00,,,0.02,WUHU21623XXSP,2013-03-29 06:04:00,
2013-03-28 23:06:00,51.1,46.7,30.10,NE,45,0.0,0.0,85,0.00,,,0.02,WUHU21623XXSP,2013-03-29 06:06:00,
2013-03-28 23:08:00,51.1,46.7,30.10,NE,45,0.0,0.0,85,0.00,,,0.02,WUHU21623XXSP,2013-03-29 06:08:00,
2013-03-28 23:09:00,51.1,46.7,30.10,NE,45,0.0,0.0,85,0.00,,,0.02,WUHU21623XXSP,2013-03-29 06:09:00,
2013-03-28 23:11:00,51.1,46.7,30.10,NE,45,0.0,0.0,85,0.00,,,0.02,WUHU21623XXSP,2013-03-29 06:11:00,
2013-03-28 23:13:00,51.1,46.7,30.09,NE,45,0.0,0.0,85,0.00,,,0.02,WUHU21623XXSP,2013-03-29 06:13:00,
2013-03-28 23:14:00,50.9,46.5,30.09,NE,45,0.0,0.0,85,0.00,,,0.02,WUHU21623XXSP,2013-03-29 06:14:00,
2013-03-28 23:16:00,50.9,46.5,30.09,NE,45,0.0,0.0,85,0.00,,,0.02,WUHU21623XXSP,2013-03-29 06:16:00,
2013-03-28 23:19:00,50.9,46.5,30.09,WSW,247,0.0,0.0,85,0.00,,,0.02,WUHU21623XXSP,2013-03-29 06:19:00,
2013-03-28 23:21:00,50.9,46.5,30.09,NE,45,0.0,0.0,85,0.00,,,0.02,WUHU21623XXSP,2013-03-29 06:21:00,
2013-03-28 23:24:00,50.9,46.5,30.10,NE,45,0.0,0.0,85,0.00,,,0.02,WUHU21623XXSP,2013-03-29 06:24:00,
2013-03-28 23:27:00,50.7,46.3,30.09,NE,45,0.0,0.0,85,0.00,,,0.02,WUHU21623XXSP,2013-03-29 06:27:00,
2013-03-28 23:29:00,50.7,46.3,30.10,NE,45,0.0,0.0,85,0.00,,,0.02,WUHU21623XXSP,2013-03-29 06:29:00,
2013-03-28 23:30:00,50.7,46.3,30.10,NE,45,0.0,0.0,85,0.00,,,0.02,WUHU21623XXSP,2013-03-29 06:30:00,
2013-03-28 23:32:00,50.7,46.3,30.10,NE,45,0.0,0.0,85,0.00,,,0.02,WUHU21623XXSP,2013-03-29 06:32:00,
2013-03-28 23:34:00,50.7,46.3,30.09,NE,45,0.0,0.0,85,0.00,,,0.02,WUHU21623XXSP,2013-03-29 06:34:00,
2013-03-28 23:35:00,50.7,46.3,30.09,NE,45,0.0,0.0,85,0.00,,,0.02,WUHU21623XXSP,2013-03-29 06:35:00,
2013-03-28 23:38:00,50.7,46.3,30.09,NE,45,0.0,0.0,85,0.00,,,0.02,WUHU21623XXSP,2013-03-29 06:38:00,
2013-03-28 23:39:00,50.7,46.3,30.10,NE,45,0.0,0.0,85,0.00,,,0.02,WUHU21623XXSP,2013-03-29 06:39:00,
2013-03-28 23:40:00,50.7,46.3,30.10,NE,45,0.0,0.0,85,0.00,,,0.02,WUHU21623XXSP,2013-03-29 06:40:00,
2013-03-28 23:43:00,50.7,46.3,30.10,NE,45,0.0,0.0,85,0.00,,,0.02,WUHU21623XXSP,2013-03-29 06:43:00,
2013-03-28 23:45:00,50.7,46.3,30.10,NE,45,0.0,0.0,85,0.00,,,0.02,WUHU21623XXSP,2013-03-29 06:45:00,
2013-03-28 23:48:00,50.7,46.3,30.10,NE,45,0.0,0.0,85,0.00,,,0.02,WUHU21623XXSP,2013-03-29 06:48:00,
2013-03-28 23:50:00,50.7,46.3,30.10,NE,45,0.0,0.0,85,0.00,,,0.02,WUHU21623XXSP,2013-03-29 06:50:00,
2013-03-28 23:53:00,50.5,46.1,30.10,NE,45,0.0,0.0,85,0.00,,,0.02,WUHU21623XXSP,2013-03-29 06:53:00,
2013-03-28 23:55:00,50.5,46.1,30.10,NE,45,0.0,0.0,85,0.00,,,0.02,WUHU21623XXSP,2013-03-29 06:55:00,
2013-03-28 23:58:00,50.5,46.1,30.10,NE,45,0.0,0.0,85,0.00,,,0.02,WUHU21623XXSP,2013-03-29 06:58:00,